UAL804 RJTT-KIAD
Flight info
| Callsign | UAL804 |
|---|---|
| Flight time | 12h 13m |
| Altitude | 33000 |
| Route | INUBO Y808 NOLAX Y812 ADNAP OTR5 KALNA 44N160E 46N170E/N0486F350 49N180E 53N170W 56N160W 58N150W/N0467F370 DCT LAIRE DCT MITOM DCT 56N120W DCT WAINN/N0480F390 DCT 50N101W DCT HML DCT KP12K DCT NOSIK DCT DERLO DCT PSB WAYNZ1 |
| Aircraft | B772/H-SDE2E3FGHIJ5LORVWXY/LB1D1 |
Departure
| Time | 2026-05-04 06:57 |
|---|---|
| Airport | Tokyo Haneda International Airport (RJTT) |
Arrival
| Time | 2026-05-04 19:10 |
|---|---|
| Airport | Washington Dulles International Airport (KIAD) |
| Time | Latitude | Longitude | Altitude | Speed | Heading |
|---|---|---|---|---|---|
| 2026-05-04 06:25 | 35.54414 | 139.77138 | 34 ft | 0 kts | 240° |
| 2026-05-04 06:40 | 35.54442 | 139.77212 | 34 ft | 2 kts | 270° |
| 2026-05-04 06:40 | 35.54440 | 139.77231 | 34 ft | 2 kts | 284° |
| 2026-05-04 06:40 | 35.54435 | 139.77248 | 34 ft | 2 kts | 298° |
| 2026-05-04 06:40 | 35.54427 | 139.77263 | 34 ft | 2 kts | 312° |
| 2026-05-04 06:41 | 35.54416 | 139.77275 | 34 ft | 2 kts | 326° |
| 2026-05-04 06:41 | 35.54411 | 139.77278 | 34 ft | 1 kts | 330° |
| 2026-05-04 06:41 | 35.54410 | 139.77280 | 34 ft | 0 kts | 330° |
| 2026-05-04 06:44 | 35.54556 | 139.77235 | 34 ft | 10 kts | 52° |
| 2026-05-04 06:44 | 35.54611 | 139.77347 | 34 ft | 17 kts | 60° |
| 2026-05-04 06:44 | 35.54652 | 139.77434 | 34 ft | 1 kts | 60° |
| 2026-05-04 06:45 | 35.54676 | 139.77447 | 34 ft | 5 kts | 1° |
| 2026-05-04 06:45 | 35.54723 | 139.77429 | 34 ft | 9 kts | 332° |
| 2026-05-04 06:45 | 35.54789 | 139.77382 | 34 ft | 11 kts | 330° |
| 2026-05-04 06:45 | 35.54861 | 139.77331 | 34 ft | 12 kts | 330° |
| 2026-05-04 06:46 | 35.54937 | 139.77277 | 34 ft | 13 kts | 329° |
| 2026-05-04 06:46 | 35.55019 | 139.77219 | 34 ft | 13 kts | 331° |
| 2026-05-04 06:46 | 35.55102 | 139.77161 | 34 ft | 13 kts | 329° |
| 2026-05-04 06:46 | 35.55188 | 139.77100 | 34 ft | 15 kts | 330° |
| 2026-05-04 06:48 | 35.55833 | 139.77197 | 34 ft | 15 kts | 35° |
| 2026-05-04 06:48 | 35.55919 | 139.77280 | 34 ft | 15 kts | 51° |
| 2026-05-04 06:49 | 35.55977 | 139.77396 | 34 ft | 15 kts | 60° |
| 2026-05-04 06:50 | 35.56470 | 139.78436 | 34 ft | 15 kts | 59° |
| 2026-05-04 06:51 | 35.56507 | 139.78514 | 34 ft | 5 kts | 60° |
| 2026-05-04 06:51 | 35.56520 | 139.78542 | 34 ft | 0 kts | 60° |
| 2026-05-04 06:55 | 35.56540 | 139.78586 | 34 ft | 9 kts | 61° |
| 2026-05-04 06:55 | 35.56562 | 139.78662 | 34 ft | 7 kts | 95° |
| 2026-05-04 06:55 | 35.56547 | 139.78685 | 34 ft | 2 kts | 149° |
| 2026-05-04 06:56 | 35.56497 | 139.78722 | 34 ft | 19 kts | 150° |
| 2026-05-04 06:57 | 35.50344 | 139.84607 | 2361 ft | 213 kts | 144° |
| 2026-05-04 06:58 | 35.49323 | 139.85944 | 2836 ft | 215 kts | 144° |
| 2026-05-04 06:58 | 35.48303 | 139.87276 | 3224 ft | 221 kts | 145° |
| 2026-05-04 06:58 | 35.47197 | 139.88704 | 3368 ft | 242 kts | 143° |
| 2026-05-04 06:58 | 35.46045 | 139.90337 | 3518 ft | 269 kts | 128° |
| 2026-05-04 06:59 | 35.45428 | 139.92641 | 3814 ft | 297 kts | 97° |
| 2026-05-04 06:59 | 35.45748 | 139.95165 | 4300 ft | 309 kts | 67° |
| 2026-05-04 06:59 | 35.46988 | 139.97301 | 4782 ft | 311 kts | 39° |
| 2026-05-04 06:59 | 35.48784 | 139.98759 | 5241 ft | 308 kts | 14° |
| 2026-05-04 07:01 | 35.62526 | 139.96094 | 9227 ft | 304 kts | 354° |
| 2026-05-04 07:01 | 35.64634 | 139.96230 | 9697 ft | 309 kts | 354° |
| 2026-05-04 07:02 | 35.66843 | 139.96391 | 10100 ft | 316 kts | 354° |
| 2026-05-04 07:02 | 35.69041 | 139.96542 | 10425 ft | 327 kts | 354° |
| 2026-05-04 07:02 | 35.71391 | 139.96689 | 10562 ft | 343 kts | 353° |
| 2026-05-04 07:02 | 35.73797 | 139.96477 | 10580 ft | 352 kts | 340° |
| 2026-05-04 07:03 | 35.76179 | 139.95618 | 10584 ft | 363 kts | 331° |
| 2026-05-04 07:03 | 35.78558 | 139.94516 | 10852 ft | 374 kts | 330° |
| 2026-05-04 07:03 | 35.80991 | 139.93382 | 11733 ft | 366 kts | 329° |
| 2026-05-04 07:03 | 35.83330 | 139.92287 | 12381 ft | 365 kts | 327° |
| 2026-05-04 07:04 | 35.85721 | 139.91159 | 12774 ft | 372 kts | 328° |
| 2026-05-04 07:04 | 35.88149 | 139.90016 | 13336 ft | 373 kts | 327° |
| 2026-05-04 07:04 | 35.90574 | 139.88875 | 13840 ft | 376 kts | 327° |
| 2026-05-04 07:04 | 35.93030 | 139.87717 | 14315 ft | 379 kts | 327° |
| 2026-05-04 07:05 | 35.95551 | 139.86636 | 14830 ft | 391 kts | 333° |
| 2026-05-04 07:05 | 35.98266 | 139.86093 | 15390 ft | 407 kts | 345° |
| 2026-05-04 07:05 | 36.01173 | 139.86162 | 15828 ft | 425 kts | 357° |
| 2026-05-04 07:05 | 36.04117 | 139.86908 | 16232 ft | 444 kts | 9° |
| 2026-05-04 07:06 | 36.10016 | 139.89809 | 16493 ft | 461 kts | 15° |
| 2026-05-04 07:06 | 36.12869 | 139.91626 | 16488 ft | 467 kts | 26° |
| 2026-05-04 07:06 | 36.15517 | 139.94052 | 16472 ft | 478 kts | 39° |
| 2026-05-04 07:07 | 36.17842 | 139.97040 | 16829 ft | 487 kts | 51° |
| 2026-05-04 07:08 | 36.23497 | 140.24788 | 19435 ft | 480 kts | 109° |
| 2026-05-04 07:09 | 36.22689 | 140.28777 | 19713 ft | 472 kts | 119° |
| 2026-05-04 07:09 | 36.21413 | 140.32475 | 20067 ft | 461 kts | 130° |
| 2026-05-04 07:09 | 36.19778 | 140.35738 | 20516 ft | 446 kts | 139° |
| 2026-05-04 07:09 | 36.17818 | 140.38614 | 21057 ft | 430 kts | 147° |
| 2026-05-04 07:10 | 36.15648 | 140.41023 | 21619 ft | 413 kts | 156° |
| 2026-05-04 07:10 | 36.13287 | 140.42932 | 21940 ft | 403 kts | 163° |
| 2026-05-04 07:12 | 35.96698 | 140.57051 | 24533 ft | 428 kts | 155° |
| 2026-05-04 07:12 | 35.94346 | 140.59265 | 24873 ft | 430 kts | 155° |
| 2026-05-04 07:12 | 35.91974 | 140.61508 | 25095 ft | 435 kts | 155° |
| 2026-05-04 07:12 | 35.89551 | 140.63809 | 25423 ft | 436 kts | 155° |
| 2026-05-04 07:13 | 35.87149 | 140.66101 | 25903 ft | 434 kts | 155° |
| 2026-05-04 07:13 | 35.84786 | 140.68355 | 26181 ft | 437 kts | 155° |
| 2026-05-04 07:13 | 35.82348 | 140.70680 | 26453 ft | 440 kts | 155° |
| 2026-05-04 07:14 | 35.72980 | 140.80881 | 27341 ft | 482 kts | 137° |
| 2026-05-04 07:14 | 35.71255 | 140.84416 | 28047 ft | 488 kts | 128° |
| 2026-05-04 07:15 | 35.69938 | 140.88327 | 28525 ft | 497 kts | 120° |
| 2026-05-04 07:15 | 35.68800 | 140.92335 | 28589 ft | 504 kts | 119° |
| 2026-05-04 07:15 | 35.66466 | 141.00543 | 28642 ft | 518 kts | 119° |
| 2026-05-04 07:16 | 35.65248 | 141.04767 | 28828 ft | 521 kts | 120° |
| 2026-05-04 07:16 | 35.64051 | 141.08893 | 29207 ft | 520 kts | 120° |
| 2026-05-04 07:16 | 35.62838 | 141.13052 | 29604 ft | 518 kts | 120° |
| 2026-05-04 07:16 | 35.61606 | 141.17246 | 29796 ft | 521 kts | 120° |
| 2026-05-04 07:17 | 35.60376 | 141.21411 | 29975 ft | 524 kts | 120° |
| 2026-05-04 07:17 | 35.59137 | 141.25595 | 30208 ft | 526 kts | 120° |
| 2026-05-04 07:17 | 35.57883 | 141.29822 | 30500 ft | 526 kts | 119° |
| 2026-05-04 07:17 | 35.56624 | 141.34056 | 30733 ft | 528 kts | 120° |
| 2026-05-04 07:18 | 35.55363 | 141.38286 | 30975 ft | 529 kts | 119° |
| 2026-05-04 07:18 | 35.54105 | 141.42496 | 31250 ft | 530 kts | 119° |
| 2026-05-04 07:18 | 35.52847 | 141.46698 | 31475 ft | 531 kts | 120° |
| 2026-05-04 07:18 | 35.51562 | 141.50986 | 31727 ft | 532 kts | 119° |
| 2026-05-04 07:19 | 35.50296 | 141.55199 | 31983 ft | 533 kts | 119° |
| 2026-05-04 07:19 | 35.49009 | 141.59480 | 32297 ft | 532 kts | 119° |
| 2026-05-04 07:19 | 35.47734 | 141.63713 | 32593 ft | 532 kts | 119° |
| 2026-05-04 07:19 | 35.46450 | 141.67963 | 32616 ft | 533 kts | 120° |
| 2026-05-04 07:20 | 35.44442 | 141.76769 | 32628 ft | 549 kts | 105° |
| 2026-05-04 07:20 | 35.44105 | 141.86267 | 32633 ft | 555 kts | 97° |
| 2026-05-04 07:22 | 35.43847 | 142.24114 | 32653 ft | 559 kts | 96° |
| 2026-05-04 07:23 | 35.43755 | 142.33530 | 32652 ft | 552 kts | 97° |
| 2026-05-04 07:23 | 35.43652 | 142.42882 | 32657 ft | 554 kts | 97° |
| 2026-05-04 07:24 | 35.43540 | 142.52348 | 32661 ft | 555 kts | 97° |
| 2026-05-04 07:24 | 35.43423 | 142.61719 | 32662 ft | 551 kts | 96° |
| 2026-05-04 07:26 | 35.42876 | 142.99087 | 32653 ft | 551 kts | 97° |
| 2026-05-04 07:27 | 35.42721 | 143.08476 | 32668 ft | 549 kts | 97° |
| 2026-05-04 07:27 | 35.42562 | 143.17714 | 32682 ft | 545 kts | 97° |
| 2026-05-04 07:28 | 35.43167 | 143.27026 | 32678 ft | 557 kts | 81° |
| 2026-05-04 07:28 | 35.45787 | 143.35967 | 32679 ft | 564 kts | 63° |
| 2026-05-04 07:29 | 35.50294 | 143.43794 | 32679 ft | 565 kts | 45° |
| 2026-05-04 07:29 | 35.55786 | 143.50713 | 32681 ft | 566 kts | 44° |
| 2026-05-04 07:30 | 35.61247 | 143.57573 | 32680 ft | 564 kts | 44° |
| 2026-05-04 07:30 | 35.66707 | 143.64490 | 32666 ft | 567 kts | 44° |
| 2026-05-04 07:31 | 35.72198 | 143.71490 | 32664 ft | 567 kts | 45° |
| 2026-05-04 07:33 | 35.93943 | 143.99458 | 32648 ft | 567 kts | 45° |
| 2026-05-04 07:33 | 35.99340 | 144.06445 | 32660 ft | 565 kts | 45° |
| 2026-05-04 07:34 | 36.04781 | 144.13509 | 32649 ft | 568 kts | 45° |
| 2026-05-04 07:34 | 36.10187 | 144.20552 | 32675 ft | 567 kts | 45° |
| 2026-05-04 07:35 | 36.15566 | 144.27574 | 32649 ft | 566 kts | 45° |
| 2026-05-04 07:35 | 36.20985 | 144.34663 | 32647 ft | 568 kts | 45° |
| 2026-05-04 07:36 | 36.26376 | 144.41733 | 32657 ft | 565 kts | 45° |
| 2026-05-04 07:38 | 36.47978 | 144.70207 | 32651 ft | 567 kts | 45° |
| 2026-05-04 07:38 | 36.53373 | 144.77357 | 32637 ft | 568 kts | 46° |
| 2026-05-04 07:39 | 36.58759 | 144.84512 | 32634 ft | 568 kts | 46° |
| 2026-05-04 07:39 | 36.64148 | 144.91685 | 32641 ft | 569 kts | 46° |
| 2026-05-04 07:40 | 36.69534 | 144.98872 | 32640 ft | 567 kts | 46° |
| 2026-05-04 07:40 | 36.74914 | 145.06064 | 32651 ft | 567 kts | 46° |
| 2026-05-04 07:41 | 36.80276 | 145.13251 | 32655 ft | 570 kts | 46° |
| 2026-05-04 07:41 | 36.85634 | 145.20445 | 32659 ft | 567 kts | 46° |
| 2026-05-04 07:42 | 36.90993 | 145.27660 | 32662 ft | 568 kts | 46° |
| 2026-05-04 07:42 | 36.96374 | 145.34917 | 32645 ft | 569 kts | 46° |
| 2026-05-04 07:43 | 37.01714 | 145.42137 | 32649 ft | 566 kts | 46° |
| 2026-05-04 07:43 | 37.07073 | 145.49399 | 32645 ft | 570 kts | 46° |
| 2026-05-04 07:44 | 37.12394 | 145.56625 | 32640 ft | 566 kts | 45° |
| 2026-05-04 07:44 | 37.17721 | 145.63878 | 32626 ft | 570 kts | 46° |
| 2026-05-04 07:45 | 37.22366 | 145.71928 | 32635 ft | 568 kts | 58° |
| 2026-05-04 07:45 | 37.26559 | 145.80289 | 32637 ft | 569 kts | 58° |
| 2026-05-04 07:46 | 37.30743 | 145.88673 | 32635 ft | 567 kts | 58° |
| 2026-05-04 07:46 | 37.34936 | 145.97104 | 32626 ft | 571 kts | 58° |
| 2026-05-04 07:47 | 37.39086 | 146.05470 | 32633 ft | 567 kts | 58° |
| 2026-05-04 07:49 | 37.55726 | 146.39243 | 32637 ft | 569 kts | 58° |
| 2026-05-04 07:49 | 37.59849 | 146.47667 | 32636 ft | 567 kts | 57° |
| 2026-05-04 07:50 | 37.63969 | 146.56104 | 32643 ft | 566 kts | 58° |
| 2026-05-04 07:50 | 37.68079 | 146.64543 | 32641 ft | 567 kts | 57° |
| 2026-05-04 07:51 | 37.72205 | 146.73039 | 32621 ft | 567 kts | 58° |
| 2026-05-04 07:51 | 37.76289 | 146.81467 | 32626 ft | 565 kts | 58° |
| 2026-05-04 07:52 | 37.80391 | 146.89957 | 32631 ft | 566 kts | 58° |
| 2026-05-04 07:52 | 37.84458 | 146.98393 | 32638 ft | 566 kts | 57° |
| 2026-05-04 07:54 | 38.00739 | 147.32393 | 32651 ft | 564 kts | 58° |
| 2026-05-04 07:55 | 38.04800 | 147.40930 | 32655 ft | 568 kts | 57° |
| 2026-05-04 07:55 | 38.08880 | 147.49528 | 32642 ft | 566 kts | 58° |
| 2026-05-04 07:56 | 38.12904 | 147.58031 | 32650 ft | 566 kts | 57° |
| 2026-05-04 07:56 | 38.16958 | 147.66620 | 32629 ft | 567 kts | 58° |
| 2026-05-04 07:57 | 38.20981 | 147.75166 | 32638 ft | 567 kts | 58° |
| 2026-05-04 07:57 | 38.25004 | 147.83737 | 32636 ft | 565 kts | 58° |
| 2026-05-04 07:58 | 38.29043 | 147.92362 | 32653 ft | 566 kts | 58° |
| 2026-05-04 07:58 | 38.33047 | 148.00935 | 32663 ft | 564 kts | 57° |
| 2026-05-04 07:59 | 38.37028 | 148.09482 | 32661 ft | 568 kts | 58° |
| 2026-05-04 07:59 | 38.41046 | 148.18133 | 32663 ft | 565 kts | 58° |
| 2026-05-04 08:00 | 38.45058 | 148.26794 | 32656 ft | 567 kts | 57° |
| 2026-05-04 08:02 | 38.60989 | 148.61415 | 32676 ft | 566 kts | 58° |
| 2026-05-04 08:02 | 38.64945 | 148.70071 | 32660 ft | 567 kts | 58° |
| 2026-05-04 08:03 | 38.68897 | 148.78743 | 32650 ft | 567 kts | 58° |
| 2026-05-04 08:03 | 38.72869 | 148.87480 | 32663 ft | 568 kts | 58° |
| 2026-05-04 08:04 | 38.76802 | 148.96156 | 32650 ft | 567 kts | 58° |
| 2026-05-04 08:04 | 38.80750 | 149.04890 | 32658 ft | 568 kts | 58° |
| 2026-05-04 08:05 | 38.84690 | 149.13632 | 32683 ft | 566 kts | 58° |
| 2026-05-04 08:05 | 38.88595 | 149.22316 | 32675 ft | 565 kts | 58° |
| 2026-05-04 08:06 | 38.92530 | 149.31093 | 32673 ft | 567 kts | 58° |
| 2026-05-04 08:06 | 38.96417 | 149.39789 | 32675 ft | 563 kts | 58° |
| 2026-05-04 08:08 | 39.11936 | 149.74739 | 32655 ft | 565 kts | 59° |
| 2026-05-04 08:11 | 39.31716 | 150.12022 | 32659 ft | 563 kts | 52° |
| 2026-05-04 08:11 | 39.38536 | 150.24286 | 32668 ft | 563 kts | 52° |
| 2026-05-04 08:12 | 39.43084 | 150.32515 | 32666 ft | 565 kts | 52° |
| 2026-05-04 08:12 | 39.47612 | 150.40739 | 32689 ft | 563 kts | 52° |
| 2026-05-04 08:13 | 39.52156 | 150.49017 | 32673 ft | 566 kts | 52° |
| 2026-05-04 08:13 | 39.56713 | 150.57344 | 32682 ft | 566 kts | 52° |
| 2026-05-04 08:14 | 39.61221 | 150.65607 | 32678 ft | 566 kts | 53° |
| 2026-05-04 08:16 | 39.79357 | 150.99071 | 32689 ft | 568 kts | 52° |
| 2026-05-04 08:16 | 39.83875 | 151.07461 | 32688 ft | 569 kts | 52° |
| 2026-05-04 08:17 | 39.88384 | 151.15860 | 32693 ft | 567 kts | 52° |
| 2026-05-04 08:17 | 39.92877 | 151.24252 | 32707 ft | 565 kts | 52° |
| 2026-05-04 08:19 | 40.10753 | 151.57855 | 32717 ft | 564 kts | 52° |
| 2026-05-04 08:20 | 40.15184 | 151.66243 | 32712 ft | 562 kts | 52° |
| 2026-05-04 08:20 | 40.19621 | 151.74661 | 32701 ft | 563 kts | 52° |
| 2026-05-04 08:21 | 40.24050 | 151.83089 | 32714 ft | 563 kts | 52° |
| 2026-05-04 08:21 | 40.28439 | 151.91461 | 32715 ft | 560 kts | 52° |
| 2026-05-04 08:22 | 40.32842 | 151.99884 | 32726 ft | 562 kts | 52° |
| 2026-05-04 08:24 | 40.50358 | 152.33615 | 32739 ft | 562 kts | 52° |
| 2026-05-04 08:24 | 40.54728 | 152.42088 | 32757 ft | 561 kts | 52° |
| 2026-05-04 08:25 | 40.59109 | 152.50606 | 32756 ft | 561 kts | 52° |
| 2026-05-04 08:25 | 40.63462 | 152.59093 | 32753 ft | 562 kts | 52° |
| 2026-05-04 08:27 | 40.80860 | 152.93242 | 32759 ft | 567 kts | 53° |
| 2026-05-04 08:28 | 40.85230 | 153.01881 | 32776 ft | 563 kts | 53° |
| 2026-05-04 08:28 | 40.89565 | 153.10474 | 32778 ft | 566 kts | 52° |
| 2026-05-04 08:29 | 40.93923 | 153.19136 | 32780 ft | 563 kts | 53° |
| 2026-05-04 08:31 | 41.11203 | 153.53723 | 32791 ft | 565 kts | 53° |
| 2026-05-04 08:33 | 41.28481 | 153.88701 | 32784 ft | 567 kts | 53° |
| 2026-05-04 08:35 | 41.45635 | 154.23828 | 32813 ft | 565 kts | 54° |
| 2026-05-04 08:35 | 41.49887 | 154.32596 | 32829 ft | 567 kts | 53° |
| 2026-05-04 08:37 | 41.64742 | 154.63435 | 32842 ft | 565 kts | 53° |
| 2026-05-04 08:38 | 41.68971 | 154.72272 | 32841 ft | 566 kts | 54° |
| 2026-05-04 08:38 | 41.73181 | 154.81096 | 32858 ft | 563 kts | 54° |
| 2026-05-04 08:40 | 41.89883 | 155.16353 | 32864 ft | 562 kts | 54° |
| 2026-05-04 08:41 | 41.94051 | 155.25215 | 32890 ft | 562 kts | 54° |
| 2026-05-04 08:41 | 41.98209 | 155.34085 | 32900 ft | 560 kts | 53° |
| 2026-05-04 08:42 | 42.02356 | 155.42952 | 32915 ft | 564 kts | 54° |
| 2026-05-04 08:42 | 42.06505 | 155.51855 | 32899 ft | 562 kts | 53° |
| 2026-05-04 08:43 | 42.10648 | 155.60770 | 32905 ft | 564 kts | 53° |
| 2026-05-04 08:43 | 42.14778 | 155.69684 | 32896 ft | 564 kts | 54° |
| 2026-05-04 08:44 | 42.18926 | 155.78661 | 32898 ft | 566 kts | 54° |
| 2026-05-04 08:46 | 42.35429 | 156.14656 | 32933 ft | 565 kts | 53° |
| 2026-05-04 08:46 | 42.39534 | 156.23675 | 32937 ft | 565 kts | 53° |
| 2026-05-04 08:47 | 42.43650 | 156.32747 | 32946 ft | 566 kts | 54° |
| 2026-05-04 08:47 | 42.47730 | 156.41769 | 32945 ft | 564 kts | 53° |
| 2026-05-04 08:48 | 42.51859 | 156.50923 | 32954 ft | 568 kts | 53° |
| 2026-05-04 08:48 | 42.55933 | 156.59987 | 32950 ft | 570 kts | 54° |
| 2026-05-04 08:49 | 42.60040 | 156.69151 | 32929 ft | 568 kts | 55° |
| 2026-05-04 08:50 | 42.74298 | 157.01190 | 32958 ft | 569 kts | 54° |
| 2026-05-04 08:51 | 42.78366 | 157.10396 | 32958 ft | 566 kts | 54° |
| 2026-05-04 08:51 | 42.82425 | 157.19606 | 32963 ft | 571 kts | 55° |
| 2026-05-04 08:52 | 42.86470 | 157.28819 | 32971 ft | 568 kts | 54° |
| 2026-05-04 08:52 | 42.90530 | 157.38094 | 32983 ft | 568 kts | 54° |
| 2026-05-04 08:54 | 43.06660 | 157.75226 | 32972 ft | 569 kts | 56° |
| 2026-05-04 08:55 | 43.10652 | 157.84489 | 32974 ft | 571 kts | 56° |
| 2026-05-04 08:55 | 43.14672 | 157.93848 | 32990 ft | 570 kts | 55° |
| 2026-05-04 09:01 | 43.56378 | 158.92766 | 32985 ft | 573 kts | 56° |
| 2026-05-04 09:01 | 43.60322 | 159.02298 | 32974 ft | 572 kts | 56° |
| 2026-05-04 09:02 | 43.64231 | 159.11778 | 32981 ft | 574 kts | 56° |
| 2026-05-04 09:02 | 43.68164 | 159.21346 | 32987 ft | 576 kts | 56° |
| 2026-05-04 09:03 | 43.72098 | 159.30951 | 32990 ft | 576 kts | 56° |
| 2026-05-04 09:03 | 43.76016 | 159.40546 | 32997 ft | 578 kts | 56° |
| 2026-05-04 09:04 | 43.79935 | 159.50179 | 33004 ft | 576 kts | 55° |
| 2026-05-04 09:04 | 43.83868 | 159.59877 | 33009 ft | 576 kts | 55° |
| 2026-05-04 09:05 | 43.87762 | 159.69510 | 32988 ft | 579 kts | 57° |
| 2026-05-04 09:05 | 43.91679 | 159.79236 | 32992 ft | 582 kts | 56° |
| 2026-05-04 09:06 | 43.95587 | 159.88976 | 32997 ft | 578 kts | 56° |
| 2026-05-04 09:08 | 44.07621 | 160.30704 | 33015 ft | 587 kts | 67° |
| 2026-05-04 09:08 | 44.10288 | 160.41359 | 33019 ft | 590 kts | 67° |
| 2026-05-04 09:09 | 44.12956 | 160.52119 | 33030 ft | 588 kts | 67° |
| 2026-05-04 09:09 | 44.15598 | 160.62845 | 33026 ft | 587 kts | 67° |
| 2026-05-04 09:10 | 44.18248 | 160.73663 | 33012 ft | 592 kts | 68° |
| 2026-05-04 09:10 | 44.20857 | 160.84376 | 33015 ft | 587 kts | 67° |
| 2026-05-04 09:11 | 44.23476 | 160.95187 | 33022 ft | 589 kts | 67° |
| 2026-05-04 09:11 | 44.26078 | 161.05978 | 33027 ft | 590 kts | 67° |
| 2026-05-04 09:12 | 44.28670 | 161.16788 | 33033 ft | 587 kts | 67° |
| 2026-05-04 09:14 | 44.38945 | 161.60143 | 33051 ft | 589 kts | 66° |
| 2026-05-04 09:14 | 44.41489 | 161.71010 | 33032 ft | 590 kts | 67° |
| 2026-05-04 09:15 | 44.44056 | 161.82028 | 33032 ft | 594 kts | 66° |
| 2026-05-04 09:15 | 44.46568 | 161.92874 | 33041 ft | 589 kts | 65° |
| 2026-05-04 09:17 | 44.57806 | 162.42035 | 33052 ft | 589 kts | 65° |
| 2026-05-04 09:18 | 44.60263 | 162.52933 | 33053 ft | 588 kts | 64° |
| 2026-05-04 09:18 | 44.62710 | 162.63840 | 33060 ft | 589 kts | 65° |
| 2026-05-04 09:19 | 44.65152 | 162.74777 | 33039 ft | 593 kts | 66° |
| 2026-05-04 09:19 | 44.67594 | 162.85783 | 33034 ft | 589 kts | 64° |
| 2026-05-04 09:20 | 44.70018 | 162.96759 | 33037 ft | 589 kts | 64° |
| 2026-05-04 09:20 | 44.72435 | 163.07756 | 33044 ft | 590 kts | 64° |
| 2026-05-04 09:21 | 44.74836 | 163.18741 | 33042 ft | 588 kts | 64° |
| 2026-05-04 09:21 | 44.77203 | 163.29623 | 33048 ft | 591 kts | 65° |
| 2026-05-04 09:22 | 44.79598 | 163.40694 | 33044 ft | 590 kts | 64° |
| 2026-05-04 09:22 | 44.81974 | 163.51743 | 33043 ft | 589 kts | 63° |
| 2026-05-04 09:23 | 44.84322 | 163.62705 | 33045 ft | 591 kts | 64° |
| 2026-05-04 09:23 | 44.86671 | 163.73741 | 33022 ft | 588 kts | 65° |
| 2026-05-04 09:25 | 44.95964 | 164.17979 | 33005 ft | 589 kts | 64° |
| 2026-05-04 09:26 | 44.98254 | 164.29030 | 33015 ft | 591 kts | 64° |
| 2026-05-04 09:26 | 45.00532 | 164.40085 | 33013 ft | 588 kts | 64° |
| 2026-05-04 09:27 | 45.02781 | 164.51071 | 33012 ft | 582 kts | 64° |
| 2026-05-04 09:27 | 45.05038 | 164.62129 | 33006 ft | 585 kts | 64° |
| 2026-05-04 09:28 | 45.07280 | 164.73184 | 32983 ft | 587 kts | 64° |
| 2026-05-04 09:28 | 45.09488 | 164.84145 | 32971 ft | 585 kts | 65° |
| 2026-05-04 09:29 | 45.11713 | 164.95230 | 32998 ft | 587 kts | 65° |
| 2026-05-04 09:29 | 45.13923 | 165.06320 | 32996 ft | 585 kts | 65° |
| 2026-05-04 09:30 | 45.16109 | 165.17352 | 32986 ft | 582 kts | 64° |
| 2026-05-04 09:30 | 45.18287 | 165.28392 | 32991 ft | 585 kts | 64° |
| 2026-05-04 09:31 | 45.20456 | 165.39464 | 32990 ft | 585 kts | 64° |
| 2026-05-04 09:31 | 45.22608 | 165.50507 | 32987 ft | 581 kts | 64° |
| 2026-05-04 09:32 | 45.24741 | 165.61505 | 32995 ft | 584 kts | 64° |
| 2026-05-04 09:34 | 45.33219 | 166.05890 | 32966 ft | 585 kts | 65° |
| 2026-05-04 09:34 | 45.35324 | 166.17067 | 32952 ft | 583 kts | 65° |
| 2026-05-04 09:35 | 45.37387 | 166.28101 | 32949 ft | 582 kts | 64° |
| 2026-05-04 09:35 | 45.39462 | 166.39241 | 32948 ft | 583 kts | 64° |
| 2026-05-04 09:37 | 45.47619 | 166.83763 | 32920 ft | 582 kts | 64° |
| 2026-05-04 09:38 | 45.49632 | 166.94893 | 32918 ft | 587 kts | 65° |
| 2026-05-04 09:38 | 45.51643 | 167.06111 | 32899 ft | 584 kts | 64° |
| 2026-05-04 09:39 | 45.53632 | 167.17281 | 32913 ft | 582 kts | 64° |
| 2026-05-04 09:39 | 45.55616 | 167.28473 | 32908 ft | 582 kts | 64° |
| 2026-05-04 09:40 | 45.57569 | 167.39577 | 32896 ft | 578 kts | 64° |
| 2026-05-04 09:40 | 45.59525 | 167.50722 | 32900 ft | 585 kts | 63° |
| 2026-05-04 09:42 | 45.67215 | 167.95366 | 32843 ft | 580 kts | 63° |
| 2026-05-04 09:43 | 45.69105 | 168.06529 | 32850 ft | 578 kts | 63° |
| 2026-05-04 09:43 | 45.70996 | 168.17726 | 32844 ft | 583 kts | 63° |
| 2026-05-04 09:44 | 45.72855 | 168.28868 | 32855 ft | 575 kts | 63° |
| 2026-05-04 09:46 | 45.80244 | 168.73724 | 32799 ft | 579 kts | 63° |
| 2026-05-04 09:46 | 45.82043 | 168.84837 | 32798 ft | 579 kts | 64° |
| 2026-05-04 09:47 | 45.83855 | 168.96086 | 32795 ft | 581 kts | 63° |
| 2026-05-04 09:49 | 45.90979 | 169.41103 | 32782 ft | 585 kts | 63° |
| 2026-05-04 09:51 | 45.97075 | 169.80667 | 32752 ft | 587 kts | 64° |
| 2026-05-04 09:51 | 45.98800 | 169.92082 | 32729 ft | 578 kts | 63° |
| 2026-05-04 09:52 | 46.00810 | 170.03130 | 32711 ft | 562 kts | 53° |
| 2026-05-04 09:52 | 46.02382 | 170.08145 | 32718 ft | 545 kts | 45° |
| 2026-05-04 09:52 | 46.04176 | 170.12868 | 32731 ft | 534 kts | 43° |
| 2026-05-04 09:53 | 46.07687 | 170.22064 | 32725 ft | 527 kts | 44° |
| 2026-05-04 09:53 | 46.11176 | 170.31406 | 32732 ft | 536 kts | 46° |
| 2026-05-04 09:54 | 46.14651 | 170.40926 | 32710 ft | 534 kts | 46° |
| 2026-05-04 09:54 | 46.18044 | 170.50337 | 32720 ft | 535 kts | 46° |
| 2026-05-04 09:55 | 46.21466 | 170.59895 | 32721 ft | 538 kts | 48° |
| 2026-05-04 09:55 | 46.24853 | 170.69431 | 32675 ft | 539 kts | 49° |
| 2026-05-04 09:56 | 46.28228 | 170.78990 | 32677 ft | 531 kts | 49° |
| 2026-05-04 09:56 | 46.31591 | 170.88527 | 32676 ft | 539 kts | 50° |
| 2026-05-04 09:57 | 46.34974 | 170.98172 | 32676 ft | 542 kts | 51° |
| 2026-05-04 09:57 | 46.38352 | 171.07861 | 32667 ft | 535 kts | 51° |
| 2026-05-04 09:58 | 46.41693 | 171.17452 | 32647 ft | 539 kts | 52° |
| 2026-05-04 09:58 | 46.45044 | 171.27127 | 32644 ft | 536 kts | 51° |
| 2026-05-04 10:00 | 46.58236 | 171.65546 | 32642 ft | 531 kts | 53° |
| 2026-05-04 10:04 | 46.80967 | 172.33078 | 32604 ft | 531 kts | 55° |
| 2026-05-04 10:04 | 46.84155 | 172.42691 | 32603 ft | 528 kts | 55° |
| 2026-05-04 10:05 | 46.87346 | 172.52351 | 32588 ft | 528 kts | 56° |
| 2026-05-04 10:05 | 46.90504 | 172.61948 | 32601 ft | 529 kts | 55° |
| 2026-05-04 10:06 | 46.93676 | 172.71622 | 32590 ft | 526 kts | 56° |
| 2026-05-04 10:06 | 46.96829 | 172.81270 | 32561 ft | 528 kts | 57° |
| 2026-05-04 10:08 | 47.07767 | 173.15039 | 32574 ft | 525 kts | 57° |
| 2026-05-04 10:08 | 47.10842 | 173.24612 | 32582 ft | 525 kts | 58° |
| 2026-05-04 10:09 | 47.13943 | 173.34306 | 32587 ft | 522 kts | 57° |
| 2026-05-04 10:09 | 47.17006 | 173.43912 | 32584 ft | 524 kts | 58° |
| 2026-05-04 10:10 | 47.20086 | 173.53612 | 32585 ft | 522 kts | 58° |
| 2026-05-04 10:10 | 47.23116 | 173.63187 | 32581 ft | 523 kts | 58° |
| 2026-05-04 10:11 | 47.26168 | 173.72868 | 32579 ft | 522 kts | 59° |
| 2026-05-04 10:11 | 47.29208 | 173.82553 | 32580 ft | 521 kts | 59° |
| 2026-05-04 10:12 | 47.32233 | 173.92224 | 32581 ft | 522 kts | 59° |
| 2026-05-04 10:12 | 47.35254 | 174.01924 | 32579 ft | 521 kts | 60° |
| 2026-05-04 10:13 | 47.38247 | 174.11566 | 32586 ft | 521 kts | 60° |
| 2026-05-04 10:13 | 47.41230 | 174.21216 | 32579 ft | 520 kts | 60° |
| 2026-05-04 10:14 | 47.44207 | 174.30878 | 32585 ft | 520 kts | 60° |
| 2026-05-04 10:16 | 47.56057 | 174.69733 | 32578 ft | 518 kts | 62° |
| 2026-05-04 10:16 | 47.59001 | 174.79477 | 32577 ft | 519 kts | 62° |
| 2026-05-04 10:17 | 47.61926 | 174.89198 | 32571 ft | 518 kts | 62° |
| 2026-05-04 10:19 | 47.73533 | 175.28160 | 32593 ft | 517 kts | 63° |
| 2026-05-04 10:19 | 47.76412 | 175.37920 | 32605 ft | 518 kts | 63° |
| 2026-05-04 10:20 | 47.79305 | 175.47769 | 32604 ft | 517 kts | 63° |
| 2026-05-04 10:20 | 47.82165 | 175.57544 | 32602 ft | 516 kts | 63° |
| 2026-05-04 10:21 | 47.85012 | 175.67308 | 32607 ft | 520 kts | 64° |
| 2026-05-04 10:21 | 47.87859 | 175.77116 | 32608 ft | 518 kts | 64° |
| 2026-05-04 10:22 | 47.92115 | 175.91855 | 32615 ft | 517 kts | 64° |
| 2026-05-04 10:23 | 47.94942 | 176.01694 | 32628 ft | 517 kts | 64° |
| 2026-05-04 10:25 | 48.06121 | 176.40993 | 32628 ft | 516 kts | 65° |
| 2026-05-04 10:25 | 48.08908 | 176.50894 | 32636 ft | 514 kts | 65° |
| 2026-05-04 10:26 | 48.11663 | 176.60721 | 32640 ft | 516 kts | 65° |
| 2026-05-04 10:26 | 48.14431 | 176.70630 | 32631 ft | 513 kts | 66° |
| 2026-05-04 10:27 | 48.17167 | 176.80470 | 32638 ft | 515 kts | 66° |
| 2026-05-04 10:27 | 48.19899 | 176.90337 | 32641 ft | 513 kts | 66° |
| 2026-05-04 10:28 | 48.22618 | 177.00194 | 32646 ft | 513 kts | 66° |
| 2026-05-04 10:28 | 48.25313 | 177.10008 | 32646 ft | 512 kts | 66° |
| 2026-05-04 10:29 | 48.28011 | 177.19873 | 32642 ft | 511 kts | 66° |
| 2026-05-04 10:29 | 48.30706 | 177.29770 | 32654 ft | 511 kts | 67° |
| 2026-05-04 10:30 | 48.33366 | 177.39578 | 32657 ft | 509 kts | 67° |
| 2026-05-04 10:30 | 48.36027 | 177.49431 | 32658 ft | 509 kts | 67° |
| 2026-05-04 10:31 | 48.38669 | 177.59255 | 32667 ft | 510 kts | 67° |
| 2026-05-04 10:32 | 48.47829 | 177.93642 | 32671 ft | 507 kts | 68° |
| 2026-05-04 10:33 | 48.50434 | 178.03513 | 32688 ft | 505 kts | 68° |
| 2026-05-04 10:33 | 48.53007 | 178.13306 | 32676 ft | 504 kts | 68° |
| 2026-05-04 10:34 | 48.55573 | 178.23111 | 32687 ft | 503 kts | 68° |
| 2026-05-04 10:34 | 48.58112 | 178.32858 | 32689 ft | 503 kts | 68° |
| 2026-05-04 10:35 | 48.60653 | 178.42653 | 32679 ft | 500 kts | 68° |
| 2026-05-04 10:35 | 48.63170 | 178.52399 | 32688 ft | 501 kts | 69° |
| 2026-05-04 10:36 | 48.65693 | 178.62209 | 32690 ft | 499 kts | 69° |
| 2026-05-04 10:36 | 48.68195 | 178.71976 | 32680 ft | 499 kts | 69° |
| 2026-05-04 10:37 | 48.70680 | 178.81720 | 32691 ft | 498 kts | 69° |
| 2026-05-04 10:37 | 48.73139 | 178.91405 | 32688 ft | 497 kts | 69° |
| 2026-05-04 10:39 | 48.81721 | 179.25532 | 32697 ft | 495 kts | 70° |
| 2026-05-04 10:40 | 48.84139 | 179.35243 | 32694 ft | 494 kts | 70° |
| 2026-05-04 10:40 | 48.86563 | 179.45023 | 32698 ft | 495 kts | 70° |
| 2026-05-04 10:41 | 48.88965 | 179.54748 | 32701 ft | 495 kts | 70° |
| 2026-05-04 10:41 | 48.91365 | 179.64514 | 32701 ft | 493 kts | 70° |
| 2026-05-04 10:42 | 48.93752 | 179.74272 | 32699 ft | 494 kts | 70° |
| 2026-05-04 10:42 | 48.96130 | 179.84033 | 32702 ft | 493 kts | 70° |
| 2026-05-04 10:43 | 48.98494 | 179.93780 | 32704 ft | 493 kts | 70° |
| 2026-05-04 10:44 | 49.11414 | -179.75777 | 32712 ft | 493 kts | 53° |
| 2026-05-04 10:45 | 49.13461 | -179.71587 | 32713 ft | 493 kts | 54° |
| 2026-05-04 10:45 | 49.17520 | -179.63184 | 32721 ft | 493 kts | 54° |
| 2026-05-04 10:46 | 49.21561 | -179.54729 | 32725 ft | 493 kts | 54° |
| 2026-05-04 10:46 | 49.25567 | -179.46287 | 32720 ft | 493 kts | 55° |
| 2026-05-04 10:47 | 49.29580 | -179.37787 | 32730 ft | 493 kts | 56° |
| 2026-05-04 10:47 | 49.33565 | -179.29311 | 32730 ft | 493 kts | 56° |
| 2026-05-04 10:49 | 49.49404 | -178.95312 | 32752 ft | 491 kts | 56° |
| 2026-05-04 10:50 | 49.53363 | -178.86743 | 32767 ft | 490 kts | 56° |
| 2026-05-04 10:52 | 49.69007 | -178.52611 | 32798 ft | 488 kts | 57° |
| 2026-05-04 10:52 | 49.72883 | -178.44087 | 32807 ft | 485 kts | 58° |
| 2026-05-04 10:54 | 49.88264 | -178.09984 | 32829 ft | 483 kts | 59° |
| 2026-05-04 10:56 | 50.03453 | -177.75871 | 32873 ft | 481 kts | 59° |
| 2026-05-04 10:57 | 50.07223 | -177.67335 | 32848 ft | 481 kts | 59° |
| 2026-05-04 10:57 | 50.10984 | -177.58789 | 32877 ft | 481 kts | 59° |
| 2026-05-04 10:58 | 50.14752 | -177.50206 | 32886 ft | 479 kts | 59° |
| 2026-05-04 10:58 | 50.18491 | -177.41656 | 32892 ft | 480 kts | 59° |
| 2026-05-04 10:59 | 50.22216 | -177.33115 | 32907 ft | 479 kts | 60° |
| 2026-05-04 10:59 | 50.25941 | -177.24541 | 32899 ft | 479 kts | 60° |
| 2026-05-04 11:00 | 50.29663 | -177.15948 | 32915 ft | 478 kts | 60° |
| 2026-05-04 11:02 | 50.44439 | -176.81557 | 32936 ft | 477 kts | 59° |
| 2026-05-04 11:05 | 50.71849 | -176.16536 | 32978 ft | 477 kts | 59° |
| 2026-05-04 11:06 | 50.75473 | -176.07816 | 32979 ft | 477 kts | 59° |
| 2026-05-04 11:06 | 50.79105 | -175.99049 | 32970 ft | 477 kts | 59° |
| 2026-05-04 11:10 | 51.04167 | -175.37732 | 32998 ft | 476 kts | 59° |
| 2026-05-04 11:12 | 51.18322 | -175.02449 | 33017 ft | 475 kts | 59° |
| 2026-05-04 11:12 | 51.21860 | -174.93556 | 33019 ft | 475 kts | 59° |
| 2026-05-04 11:13 | 51.25378 | -174.84680 | 33027 ft | 475 kts | 59° |
| 2026-05-04 11:13 | 51.28896 | -174.75777 | 33027 ft | 476 kts | 59° |
| 2026-05-04 11:14 | 51.32390 | -174.66902 | 33038 ft | 475 kts | 59° |
| 2026-05-04 11:16 | 51.46363 | -174.31097 | 33031 ft | 475 kts | 59° |
| 2026-05-04 11:16 | 51.49816 | -174.22174 | 33044 ft | 475 kts | 59° |
| 2026-05-04 11:17 | 51.53272 | -174.13209 | 33050 ft | 474 kts | 59° |
| 2026-05-04 11:19 | 51.67027 | -173.77219 | 33053 ft | 474 kts | 59° |
| 2026-05-04 11:19 | 51.70442 | -173.68205 | 33063 ft | 475 kts | 59° |
| 2026-05-04 11:20 | 51.73886 | -173.59082 | 33072 ft | 476 kts | 59° |
| 2026-05-04 11:20 | 51.77301 | -173.50005 | 33060 ft | 476 kts | 58° |
| 2026-05-04 11:22 | 51.90864 | -173.13623 | 33065 ft | 473 kts | 58° |
| 2026-05-04 11:23 | 51.94212 | -173.04564 | 33076 ft | 472 kts | 59° |
| 2026-05-04 11:25 | 52.05921 | -172.72617 | 33069 ft | 472 kts | 58° |
| 2026-05-04 11:25 | 52.09249 | -172.63461 | 33078 ft | 472 kts | 58° |
| 2026-05-04 11:27 | 52.24151 | -172.22061 | 33079 ft | 473 kts | 58° |
| 2026-05-04 11:28 | 52.27437 | -172.12839 | 33077 ft | 473 kts | 58° |
| 2026-05-04 11:28 | 52.30745 | -172.03523 | 33082 ft | 474 kts | 58° |
| 2026-05-04 11:29 | 52.34025 | -171.94249 | 33081 ft | 474 kts | 58° |
| 2026-05-04 11:29 | 52.37295 | -171.84969 | 33083 ft | 473 kts | 58° |
| 2026-05-04 11:33 | 52.60007 | -171.19551 | 33020 ft | 473 kts | 58° |
| 2026-05-04 11:33 | 52.63222 | -171.10149 | 33056 ft | 473 kts | 58° |
| 2026-05-04 11:34 | 52.66416 | -171.00774 | 33080 ft | 472 kts | 57° |
| 2026-05-04 11:34 | 52.69612 | -170.91360 | 33087 ft | 472 kts | 57° |
| 2026-05-04 11:35 | 52.72786 | -170.81973 | 33087 ft | 473 kts | 57° |
| 2026-05-04 11:35 | 52.75977 | -170.72499 | 33083 ft | 472 kts | 57° |
| 2026-05-04 11:36 | 52.79142 | -170.63071 | 33083 ft | 473 kts | 57° |
| 2026-05-04 11:36 | 52.82316 | -170.53574 | 33079 ft | 472 kts | 57° |
| 2026-05-04 11:37 | 52.85467 | -170.44112 | 33073 ft | 473 kts | 57° |
| 2026-05-04 11:37 | 52.88617 | -170.34615 | 33082 ft | 473 kts | 57° |
| 2026-05-04 11:38 | 52.91779 | -170.25046 | 33072 ft | 473 kts | 57° |
| 2026-05-04 11:38 | 52.94896 | -170.15578 | 33071 ft | 473 kts | 57° |
| 2026-05-04 11:39 | 52.98041 | -170.05986 | 33072 ft | 474 kts | 57° |
| 2026-05-04 11:41 | 53.09688 | -169.73354 | 33043 ft | 470 kts | 53° |
| 2026-05-04 11:41 | 53.13038 | -169.64122 | 33067 ft | 469 kts | 53° |
| 2026-05-04 11:42 | 53.16404 | -169.54802 | 33067 ft | 469 kts | 53° |
| 2026-05-04 11:42 | 53.19739 | -169.45525 | 33071 ft | 470 kts | 53° |
| 2026-05-04 11:43 | 53.23084 | -169.36182 | 33074 ft | 470 kts | 53° |
| 2026-05-04 11:43 | 53.26424 | -169.26816 | 33071 ft | 470 kts | 53° |
| 2026-05-04 11:44 | 53.29745 | -169.17462 | 33069 ft | 468 kts | 53° |
| 2026-05-04 11:44 | 53.33045 | -169.08141 | 33073 ft | 471 kts | 53° |
| 2026-05-04 11:45 | 53.36347 | -168.98773 | 33067 ft | 469 kts | 53° |
| 2026-05-04 11:45 | 53.39639 | -168.89400 | 33059 ft | 469 kts | 53° |
| 2026-05-04 11:46 | 53.42921 | -168.80020 | 33061 ft | 469 kts | 53° |
| 2026-05-04 11:46 | 53.46207 | -168.70589 | 33061 ft | 468 kts | 53° |
| 2026-05-04 11:47 | 53.49480 | -168.61163 | 33071 ft | 469 kts | 53° |
| 2026-05-04 11:47 | 53.52745 | -168.51724 | 33072 ft | 468 kts | 53° |
| 2026-05-04 11:48 | 53.55998 | -168.42285 | 33065 ft | 469 kts | 53° |
| 2026-05-04 11:48 | 53.59231 | -168.32866 | 33039 ft | 468 kts | 53° |
| 2026-05-04 11:49 | 53.62459 | -168.23427 | 33067 ft | 470 kts | 54° |
| 2026-05-04 11:49 | 53.65694 | -168.13930 | 33040 ft | 469 kts | 54° |
| 2026-05-04 11:50 | 53.68931 | -168.04391 | 33059 ft | 469 kts | 54° |
| 2026-05-04 11:50 | 53.72150 | -167.94865 | 33056 ft | 469 kts | 54° |
| 2026-05-04 11:51 | 53.75348 | -167.85368 | 33081 ft | 468 kts | 54° |
| 2026-05-04 11:51 | 53.78539 | -167.75853 | 33057 ft | 468 kts | 55° |
| 2026-05-04 11:52 | 53.81735 | -167.66290 | 33079 ft | 469 kts | 55° |
| 2026-05-04 11:52 | 53.84926 | -167.56702 | 33061 ft | 469 kts | 56° |
| 2026-05-04 11:53 | 53.88114 | -167.47081 | 33054 ft | 469 kts | 56° |
| 2026-05-04 11:53 | 53.91293 | -167.37454 | 33076 ft | 470 kts | 56° |
| 2026-05-04 11:55 | 54.03995 | -166.98601 | 33063 ft | 472 kts | 58° |
| 2026-05-04 11:56 | 54.07151 | -166.88852 | 33063 ft | 473 kts | 58° |
| 2026-05-04 11:56 | 54.10290 | -166.79112 | 33060 ft | 473 kts | 59° |
| 2026-05-04 11:57 | 54.13448 | -166.69278 | 33064 ft | 474 kts | 59° |
| 2026-05-04 11:57 | 54.16603 | -166.59410 | 33067 ft | 475 kts | 59° |
| 2026-05-04 11:58 | 54.19743 | -166.49551 | 33071 ft | 475 kts | 59° |
| 2026-05-04 11:58 | 54.22881 | -166.39655 | 33070 ft | 475 kts | 59° |
| 2026-05-04 11:59 | 54.26017 | -166.29727 | 33063 ft | 475 kts | 60° |
| 2026-05-04 11:59 | 54.29119 | -166.19865 | 33064 ft | 476 kts | 61° |
| 2026-05-04 12:00 | 54.32230 | -166.09935 | 33060 ft | 475 kts | 61° |
| 2026-05-04 12:00 | 54.35352 | -165.99927 | 33063 ft | 475 kts | 61° |
| 2026-05-04 12:01 | 54.38432 | -165.90015 | 33059 ft | 475 kts | 61° |
| 2026-05-04 12:02 | 54.49268 | -165.54805 | 33044 ft | 481 kts | 62° |
| 2026-05-04 12:03 | 54.52358 | -165.44669 | 33046 ft | 481 kts | 62° |
| 2026-05-04 12:03 | 54.55436 | -165.34529 | 33041 ft | 479 kts | 63° |
| 2026-05-04 12:04 | 54.58523 | -165.24315 | 33044 ft | 479 kts | 64° |
| 2026-05-04 12:04 | 54.61572 | -165.14185 | 33042 ft | 478 kts | 64° |
| 2026-05-04 12:05 | 54.64609 | -165.04050 | 33037 ft | 477 kts | 64° |
| 2026-05-04 12:05 | 54.67647 | -164.93870 | 33032 ft | 477 kts | 64° |
| 2026-05-04 12:06 | 54.70667 | -164.83707 | 33025 ft | 478 kts | 64° |
| 2026-05-04 12:06 | 54.73684 | -164.73508 | 33036 ft | 479 kts | 64° |
| 2026-05-04 12:07 | 54.76699 | -164.63271 | 33033 ft | 480 kts | 65° |
| 2026-05-04 12:07 | 54.79712 | -164.52997 | 33025 ft | 480 kts | 65° |
| 2026-05-04 12:08 | 54.82736 | -164.42641 | 33016 ft | 481 kts | 65° |
| 2026-05-04 12:08 | 54.85723 | -164.32365 | 33022 ft | 481 kts | 66° |
| 2026-05-04 12:09 | 54.88722 | -164.22005 | 33022 ft | 481 kts | 66° |
| 2026-05-04 12:09 | 54.91714 | -164.11618 | 33007 ft | 483 kts | 66° |
| 2026-05-04 12:10 | 54.94696 | -164.01224 | 32996 ft | 482 kts | 66° |
| 2026-05-04 12:10 | 54.97657 | -163.90857 | 33014 ft | 482 kts | 67° |
| 2026-05-04 12:11 | 55.00619 | -163.80441 | 33050 ft | 483 kts | 67° |
| 2026-05-04 12:11 | 55.03588 | -163.69951 | 33044 ft | 483 kts | 67° |
| 2026-05-04 12:12 | 55.06543 | -163.59464 | 33039 ft | 483 kts | 67° |
| 2026-05-04 12:12 | 55.09491 | -163.48952 | 33032 ft | 483 kts | 68° |
| 2026-05-04 12:14 | 55.21155 | -163.06892 | 33004 ft | 484 kts | 69° |
| 2026-05-04 12:15 | 55.24057 | -162.96307 | 33009 ft | 482 kts | 70° |
| 2026-05-04 12:15 | 55.26949 | -162.85707 | 33004 ft | 484 kts | 70° |
| 2026-05-04 12:16 | 55.29825 | -162.75122 | 33008 ft | 484 kts | 70° |
| 2026-05-04 12:16 | 55.32697 | -162.64497 | 33025 ft | 485 kts | 70° |
| 2026-05-04 12:17 | 55.35567 | -162.53834 | 33007 ft | 484 kts | 70° |
| 2026-05-04 12:17 | 55.38424 | -162.43170 | 32987 ft | 483 kts | 70° |
| 2026-05-04 12:18 | 55.41273 | -162.32480 | 32981 ft | 487 kts | 71° |
| 2026-05-04 12:18 | 55.44133 | -162.21703 | 32954 ft | 484 kts | 71° |
| 2026-05-04 12:19 | 55.46962 | -162.10992 | 32922 ft | 482 kts | 71° |
| 2026-05-04 12:19 | 55.49733 | -162.00446 | 32932 ft | 486 kts | 72° |
| 2026-05-04 12:20 | 55.52593 | -161.89516 | 32944 ft | 485 kts | 71° |
| 2026-05-04 12:20 | 55.55399 | -161.78737 | 32956 ft | 485 kts | 72° |
| 2026-05-04 12:21 | 55.58186 | -161.67979 | 32973 ft | 484 kts | 72° |
| 2026-05-04 12:21 | 55.60988 | -161.57112 | 32969 ft | 485 kts | 72° |
| 2026-05-04 12:22 | 55.63755 | -161.46329 | 32982 ft | 486 kts | 72° |
| 2026-05-04 12:22 | 55.66535 | -161.35440 | 32976 ft | 487 kts | 72° |
| 2026-05-04 12:23 | 55.69284 | -161.24625 | 32964 ft | 483 kts | 73° |
| 2026-05-04 12:23 | 55.72012 | -161.13838 | 32942 ft | 485 kts | 73° |
| 2026-05-04 12:24 | 55.74765 | -161.02893 | 32933 ft | 485 kts | 73° |
| 2026-05-04 12:24 | 55.77486 | -160.92029 | 32926 ft | 485 kts | 73° |
| 2026-05-04 12:25 | 55.80217 | -160.81071 | 32934 ft | 483 kts | 73° |
| 2026-05-04 12:25 | 55.82911 | -160.70198 | 32943 ft | 487 kts | 73° |
| 2026-05-04 12:26 | 55.85605 | -160.59283 | 32949 ft | 484 kts | 73° |
| 2026-05-04 12:26 | 55.88294 | -160.48325 | 32963 ft | 487 kts | 73° |
| 2026-05-04 12:27 | 55.90986 | -160.37311 | 32947 ft | 482 kts | 73° |
| 2026-05-04 12:27 | 55.93625 | -160.26450 | 32939 ft | 483 kts | 74° |
| 2026-05-04 12:28 | 55.96294 | -160.15404 | 32935 ft | 485 kts | 74° |
| 2026-05-04 12:28 | 55.98932 | -160.04443 | 32898 ft | 485 kts | 74° |
| 2026-05-04 12:29 | 56.01649 | -159.93474 | 32856 ft | 485 kts | 73° |
| 2026-05-04 12:29 | 56.04396 | -159.82529 | 32859 ft | 487 kts | 73° |
| 2026-05-04 12:30 | 56.07153 | -159.71497 | 32853 ft | 486 kts | 73° |
| 2026-05-04 12:30 | 56.09900 | -159.60446 | 32868 ft | 492 kts | 73° |
| 2026-05-04 12:31 | 56.12656 | -159.49321 | 32836 ft | 487 kts | 73° |
| 2026-05-04 12:31 | 56.15388 | -159.38220 | 32840 ft | 490 kts | 73° |
| 2026-05-04 12:32 | 56.19456 | -159.21608 | 32808 ft | 487 kts | 75° |
| 2026-05-04 12:33 | 56.22182 | -159.10384 | 32826 ft | 493 kts | 75° |
| 2026-05-04 12:33 | 56.24907 | -158.99133 | 32858 ft | 488 kts | 75° |
| 2026-05-04 12:34 | 56.27604 | -158.87915 | 32891 ft | 495 kts | 75° |
| 2026-05-04 12:34 | 56.30302 | -158.76651 | 32894 ft | 492 kts | 75° |
| 2026-05-04 12:35 | 56.32983 | -158.65399 | 32865 ft | 491 kts | 75° |
| 2026-05-04 12:35 | 56.35653 | -158.54121 | 32898 ft | 495 kts | 75° |
| 2026-05-04 12:36 | 56.38322 | -158.42809 | 32904 ft | 490 kts | 75° |
| 2026-05-04 12:36 | 56.40981 | -158.31456 | 32905 ft | 496 kts | 76° |
| 2026-05-04 12:37 | 56.43627 | -158.20123 | 32916 ft | 491 kts | 76° |
| 2026-05-04 12:37 | 56.46273 | -158.08708 | 32888 ft | 496 kts | 76° |
| 2026-05-04 12:38 | 56.48910 | -157.97286 | 32920 ft | 494 kts | 76° |
| 2026-05-04 12:38 | 56.51544 | -157.85802 | 32936 ft | 497 kts | 76° |
| 2026-05-04 12:39 | 56.54152 | -157.74383 | 32925 ft | 495 kts | 76° |
| 2026-05-04 12:39 | 56.56774 | -157.62834 | 32925 ft | 495 kts | 76° |
| 2026-05-04 12:40 | 56.59379 | -157.51294 | 32928 ft | 497 kts | 76° |
| 2026-05-04 12:40 | 56.61962 | -157.39803 | 32926 ft | 493 kts | 77° |
| 2026-05-04 12:41 | 56.64550 | -157.28198 | 32933 ft | 499 kts | 77° |
| 2026-05-04 12:41 | 56.67122 | -157.16635 | 32929 ft | 493 kts | 77° |
| 2026-05-04 12:42 | 56.69680 | -157.05031 | 32933 ft | 500 kts | 77° |
| 2026-05-04 12:42 | 56.72235 | -156.93416 | 32936 ft | 497 kts | 78° |
| 2026-05-04 12:43 | 56.74789 | -156.81718 | 32933 ft | 496 kts | 77° |
| 2026-05-04 12:43 | 56.77305 | -156.70134 | 32928 ft | 497 kts | 77° |
| 2026-05-04 12:44 | 56.79839 | -156.58389 | 32948 ft | 500 kts | 77° |
| 2026-05-04 12:44 | 56.82354 | -156.46684 | 32945 ft | 499 kts | 78° |
| 2026-05-04 12:45 | 56.84874 | -156.34886 | 32959 ft | 495 kts | 78° |
| 2026-05-04 12:45 | 56.87347 | -156.23233 | 32942 ft | 498 kts | 78° |
| 2026-05-04 12:46 | 56.89830 | -156.11462 | 32947 ft | 500 kts | 78° |
| 2026-05-04 12:46 | 56.92302 | -155.99689 | 32956 ft | 497 kts | 78° |
| 2026-05-04 12:47 | 56.94762 | -155.87894 | 32960 ft | 500 kts | 78° |
| 2026-05-04 12:47 | 56.97234 | -155.75983 | 32956 ft | 497 kts | 78° |
| 2026-05-04 12:48 | 56.99680 | -155.64107 | 32958 ft | 505 kts | 78° |
| 2026-05-04 12:48 | 57.02124 | -155.52190 | 32959 ft | 502 kts | 78° |
| 2026-05-04 12:49 | 57.04543 | -155.40324 | 32957 ft | 501 kts | 79° |
| 2026-05-04 12:49 | 57.06979 | -155.28284 | 32952 ft | 505 kts | 79° |
| 2026-05-04 12:50 | 57.09386 | -155.16339 | 32952 ft | 502 kts | 79° |
| 2026-05-04 12:50 | 57.11782 | -155.04366 | 32928 ft | 501 kts | 79° |
| 2026-05-04 12:51 | 57.14182 | -154.92281 | 32929 ft | 507 kts | 79° |
| 2026-05-04 12:51 | 57.16572 | -154.80206 | 32928 ft | 502 kts | 80° |
| 2026-05-04 12:52 | 57.18950 | -154.68095 | 32931 ft | 506 kts | 80° |
| 2026-05-04 12:52 | 57.21308 | -154.56027 | 32939 ft | 503 kts | 80° |
| 2026-05-04 12:53 | 57.23622 | -154.44090 | 32937 ft | 505 kts | 79° |
| 2026-05-04 12:53 | 57.25983 | -154.31827 | 32993 ft | 516 kts | 80° |
| 2026-05-04 12:53 | 57.27185 | -154.25560 | 33227 ft | 518 kts | 80° |
| 2026-05-04 12:54 | 57.28368 | -154.19386 | 33609 ft | 517 kts | 81° |
| 2026-05-04 12:54 | 57.29566 | -154.13121 | 34161 ft | 512 kts | 81° |
| 2026-05-04 12:54 | 57.30737 | -154.06970 | 34555 ft | 510 kts | 81° |
| 2026-05-04 12:54 | 57.31896 | -154.00847 | 34747 ft | 512 kts | 80° |
| 2026-05-04 12:55 | 57.33075 | -153.94595 | 34876 ft | 513 kts | 80° |
| 2026-05-04 12:55 | 57.35399 | -153.82233 | 34891 ft | 514 kts | 80° |
| 2026-05-04 12:56 | 57.37716 | -153.69832 | 34906 ft | 510 kts | 80° |
| 2026-05-04 12:56 | 57.40009 | -153.57459 | 34911 ft | 515 kts | 80° |
| 2026-05-04 12:57 | 57.42317 | -153.44930 | 34905 ft | 516 kts | 80° |
| 2026-05-04 12:57 | 57.44606 | -153.32442 | 34903 ft | 511 kts | 81° |
| 2026-05-04 12:58 | 57.46882 | -153.19923 | 34906 ft | 511 kts | 81° |
| 2026-05-04 12:58 | 57.49137 | -153.07430 | 34923 ft | 515 kts | 81° |
| 2026-05-04 12:59 | 57.51381 | -152.94925 | 34948 ft | 513 kts | 81° |
| 2026-05-04 12:59 | 57.53639 | -152.82248 | 34965 ft | 516 kts | 81° |
| 2026-05-04 13:00 | 57.55878 | -152.69594 | 34975 ft | 520 kts | 81° |
| 2026-05-04 13:00 | 57.58113 | -152.56885 | 34980 ft | 518 kts | 80° |
| 2026-05-04 13:01 | 57.60336 | -152.44153 | 34989 ft | 517 kts | 81° |
| 2026-05-04 13:01 | 57.62530 | -152.31490 | 34992 ft | 518 kts | 81° |
| 2026-05-04 13:02 | 57.64722 | -152.18751 | 34993 ft | 518 kts | 81° |
| 2026-05-04 13:02 | 57.66902 | -152.05994 | 34996 ft | 521 kts | 81° |
| 2026-05-04 13:03 | 57.69071 | -151.93228 | 35000 ft | 518 kts | 81° |
| 2026-05-04 13:03 | 57.71233 | -151.80385 | 34996 ft | 520 kts | 81° |
| 2026-05-04 13:04 | 57.73389 | -151.67499 | 35009 ft | 519 kts | 81° |
| 2026-05-04 13:04 | 57.75529 | -151.54607 | 35009 ft | 522 kts | 81° |
| 2026-05-04 13:05 | 57.77671 | -151.41605 | 35014 ft | 524 kts | 81° |
| 2026-05-04 13:05 | 57.79779 | -151.28744 | 35010 ft | 519 kts | 82° |
| 2026-05-04 13:06 | 57.81889 | -151.15730 | 35009 ft | 524 kts | 82° |
| 2026-05-04 13:06 | 57.83977 | -151.02785 | 35016 ft | 523 kts | 82° |
| 2026-05-04 13:07 | 57.86057 | -150.89781 | 35030 ft | 525 kts | 82° |
| 2026-05-04 13:07 | 57.88137 | -150.76692 | 35031 ft | 522 kts | 82° |
| 2026-05-04 13:08 | 57.90190 | -150.63652 | 35041 ft | 526 kts | 82° |
| 2026-05-04 13:08 | 57.92244 | -150.50531 | 35043 ft | 522 kts | 81° |
| 2026-05-04 13:09 | 57.94279 | -150.37390 | 35053 ft | 531 kts | 81° |
| 2026-05-04 13:09 | 57.96304 | -150.24266 | 35055 ft | 521 kts | 82° |
| 2026-05-04 13:10 | 57.98309 | -150.11122 | 35063 ft | 529 kts | 82° |
| 2026-05-04 13:10 | 58.00211 | -149.97858 | 35068 ft | 522 kts | 85° |
| 2026-05-04 13:11 | 58.01883 | -149.84541 | 35068 ft | 526 kts | 85° |
| 2026-05-04 13:11 | 58.03527 | -149.71231 | 35077 ft | 526 kts | 85° |
| 2026-05-04 13:12 | 58.05162 | -149.57811 | 35076 ft | 527 kts | 84° |
| 2026-05-04 13:12 | 58.06786 | -149.44338 | 35079 ft | 526 kts | 84° |
| 2026-05-04 13:13 | 58.08395 | -149.30839 | 35082 ft | 528 kts | 86° |
| 2026-05-04 13:13 | 58.09980 | -149.17407 | 35087 ft | 529 kts | 85° |
| 2026-05-04 13:14 | 58.11566 | -149.03815 | 35056 ft | 533 kts | 85° |
| 2026-05-04 13:14 | 58.13129 | -148.90318 | 35068 ft | 530 kts | 86° |
| 2026-05-04 13:15 | 58.14689 | -148.76675 | 35075 ft | 532 kts | 85° |
| 2026-05-04 13:15 | 58.16229 | -148.63071 | 35081 ft | 534 kts | 85° |
| 2026-05-04 13:16 | 58.17757 | -148.49457 | 35091 ft | 530 kts | 85° |
| 2026-05-04 13:16 | 58.19274 | -148.35774 | 35091 ft | 534 kts | 85° |
| 2026-05-04 13:17 | 58.20777 | -148.22084 | 35090 ft | 532 kts | 86° |
| 2026-05-04 13:17 | 58.22263 | -148.08409 | 35047 ft | 534 kts | 86° |
| 2026-05-04 13:18 | 58.23729 | -147.94774 | 34952 ft | 530 kts | 86° |
| 2026-05-04 13:18 | 58.24464 | -147.87869 | 35173 ft | 534 kts | 86° |
| 2026-05-04 13:18 | 58.25192 | -147.80986 | 35042 ft | 533 kts | 86° |
| 2026-05-04 13:19 | 58.26637 | -147.67247 | 35121 ft | 535 kts | 86° |
| 2026-05-04 13:19 | 58.28068 | -147.53487 | 35126 ft | 535 kts | 85° |
| 2026-05-04 13:20 | 58.29487 | -147.39677 | 35130 ft | 538 kts | 85° |
| 2026-05-04 13:20 | 58.30895 | -147.25845 | 35127 ft | 534 kts | 86° |
| 2026-05-04 13:21 | 58.32288 | -147.11968 | 35132 ft | 536 kts | 86° |
| 2026-05-04 13:21 | 58.33673 | -146.98032 | 35131 ft | 535 kts | 86° |
| 2026-05-04 13:22 | 58.35033 | -146.84157 | 35142 ft | 541 kts | 86° |
| 2026-05-04 13:22 | 58.36389 | -146.70178 | 35143 ft | 540 kts | 86° |
| 2026-05-04 13:23 | 58.37723 | -146.56277 | 35148 ft | 537 kts | 86° |
| 2026-05-04 13:23 | 58.39055 | -146.42197 | 35144 ft | 541 kts | 86° |
| 2026-05-04 13:24 | 58.40364 | -146.28215 | 35148 ft | 537 kts | 86° |
| 2026-05-04 13:24 | 58.41650 | -146.14285 | 35150 ft | 541 kts | 87° |
| 2026-05-04 13:25 | 58.43570 | -145.93166 | 35158 ft | 540 kts | 86° |
| 2026-05-04 13:25 | 58.44826 | -145.79121 | 35163 ft | 541 kts | 86° |
| 2026-05-04 13:26 | 58.46076 | -145.64975 | 35165 ft | 540 kts | 86° |
| 2026-05-04 13:26 | 58.47303 | -145.50888 | 35171 ft | 541 kts | 86° |
| 2026-05-04 13:27 | 58.48521 | -145.36719 | 35178 ft | 543 kts | 86° |
| 2026-05-04 13:27 | 58.49717 | -145.22644 | 35171 ft | 541 kts | 87° |
| 2026-05-04 13:28 | 58.50898 | -145.08505 | 35176 ft | 543 kts | 86° |
| 2026-05-04 13:28 | 58.52069 | -144.94324 | 35176 ft | 542 kts | 86° |
| 2026-05-04 13:29 | 58.53228 | -144.80075 | 35188 ft | 545 kts | 86° |
| 2026-05-04 13:29 | 58.54371 | -144.65837 | 35186 ft | 542 kts | 86° |
| 2026-05-04 13:30 | 58.55494 | -144.51622 | 35198 ft | 545 kts | 86° |
| 2026-05-04 13:30 | 58.56608 | -144.37312 | 35201 ft | 545 kts | 86° |
| 2026-05-04 13:31 | 58.57699 | -144.23105 | 35192 ft | 542 kts | 87° |
| 2026-05-04 13:31 | 58.58779 | -144.08794 | 35203 ft | 545 kts | 87° |
| 2026-05-04 13:32 | 58.59840 | -143.94560 | 35196 ft | 542 kts | 87° |
| 2026-05-04 13:32 | 58.60883 | -143.80325 | 35205 ft | 542 kts | 87° |
| 2026-05-04 13:33 | 58.61917 | -143.65959 | 35216 ft | 545 kts | 87° |
| 2026-05-04 13:33 | 58.62933 | -143.51666 | 35223 ft | 543 kts | 87° |
| 2026-05-04 13:34 | 58.63935 | -143.37293 | 35232 ft | 548 kts | 86° |
| 2026-05-04 13:34 | 58.64925 | -143.22885 | 35227 ft | 546 kts | 88° |
| 2026-05-04 13:35 | 58.66373 | -143.01344 | 35241 ft | 546 kts | 87° |
| 2026-05-04 13:36 | 58.67322 | -142.86903 | 35245 ft | 547 kts | 87° |
| 2026-05-04 13:36 | 58.68256 | -142.72452 | 35248 ft | 546 kts | 87° |
| 2026-05-04 13:37 | 58.69176 | -142.57948 | 35253 ft | 550 kts | 87° |
| 2026-05-04 13:37 | 58.70081 | -142.43442 | 35255 ft | 549 kts | 87° |
| 2026-05-04 13:38 | 58.70964 | -142.28999 | 35247 ft | 547 kts | 88° |
| 2026-05-04 13:38 | 58.71837 | -142.14438 | 35250 ft | 549 kts | 88° |
| 2026-05-04 13:39 | 58.72694 | -141.99887 | 35257 ft | 550 kts | 88° |
| 2026-05-04 13:39 | 58.73529 | -141.85411 | 35260 ft | 549 kts | 87° |
| 2026-05-04 13:40 | 58.74354 | -141.70802 | 35262 ft | 551 kts | 87° |
| 2026-05-04 13:40 | 58.75161 | -141.56247 | 35262 ft | 549 kts | 87° |
| 2026-05-04 13:41 | 58.75948 | -141.41730 | 35264 ft | 550 kts | 87° |
| 2026-05-04 13:41 | 58.76723 | -141.27136 | 35254 ft | 549 kts | 88° |
| 2026-05-04 13:42 | 58.77852 | -141.05264 | 35262 ft | 549 kts | 88° |
| 2026-05-04 13:42 | 58.78584 | -140.90685 | 35264 ft | 551 kts | 87° |
| 2026-05-04 13:43 | 58.79306 | -140.75966 | 35269 ft | 551 kts | 88° |
| 2026-05-04 13:43 | 58.80002 | -140.61426 | 35279 ft | 550 kts | 87° |
| 2026-05-04 13:44 | 58.80138 | -140.46742 | 35277 ft | 548 kts | 95° |
| 2026-05-04 13:44 | 58.79923 | -140.32193 | 35276 ft | 546 kts | 96° |
| 2026-05-04 13:45 | 58.79660 | -140.17583 | 35276 ft | 548 kts | 96° |
| 2026-05-04 13:45 | 58.79363 | -140.02942 | 35275 ft | 547 kts | 96° |
| 2026-05-04 13:46 | 58.79044 | -139.88423 | 35284 ft | 546 kts | 96° |
| 2026-05-04 13:46 | 58.78700 | -139.73795 | 35274 ft | 550 kts | 96° |
| 2026-05-04 13:47 | 58.78339 | -139.59224 | 35282 ft | 549 kts | 96° |
| 2026-05-04 13:47 | 58.77958 | -139.44620 | 35282 ft | 549 kts | 96° |
| 2026-05-04 13:48 | 58.77561 | -139.30034 | 35282 ft | 549 kts | 96° |
| 2026-05-04 13:48 | 58.77144 | -139.15370 | 35274 ft | 548 kts | 96° |
| 2026-05-04 13:49 | 58.76714 | -139.00816 | 35278 ft | 549 kts | 97° |
| 2026-05-04 13:49 | 58.76265 | -138.86212 | 35284 ft | 549 kts | 96° |
| 2026-05-04 13:50 | 58.75798 | -138.71590 | 35287 ft | 549 kts | 96° |
| 2026-05-04 13:50 | 58.75317 | -138.57013 | 35296 ft | 548 kts | 96° |
| 2026-05-04 13:51 | 58.74818 | -138.42413 | 35287 ft | 547 kts | 96° |
| 2026-05-04 13:51 | 58.74307 | -138.27904 | 35277 ft | 546 kts | 97° |
| 2026-05-04 13:52 | 58.73506 | -138.06117 | 35278 ft | 547 kts | 97° |
| 2026-05-04 13:53 | 58.72950 | -137.91553 | 35280 ft | 548 kts | 97° |
| 2026-05-04 13:53 | 58.72378 | -137.76970 | 35276 ft | 546 kts | 97° |
| 2026-05-04 13:54 | 58.71492 | -137.55209 | 35237 ft | 545 kts | 97° |
| 2026-05-04 13:55 | 58.70571 | -137.33496 | 35214 ft | 546 kts | 97° |
| 2026-05-04 13:55 | 58.69619 | -137.11905 | 35197 ft | 544 kts | 97° |
| 2026-05-04 13:56 | 58.68962 | -136.97493 | 35202 ft | 543 kts | 97° |
| 2026-05-04 13:57 | 58.67949 | -136.75914 | 35218 ft | 542 kts | 96° |
| 2026-05-04 13:58 | 58.66539 | -136.47087 | 35315 ft | 545 kts | 97° |
| 2026-05-04 13:58 | 58.65443 | -136.25569 | 35318 ft | 543 kts | 97° |
| 2026-05-04 13:59 | 58.64688 | -136.11160 | 35310 ft | 546 kts | 97° |
| 2026-05-04 14:00 | 58.63528 | -135.89583 | 35288 ft | 544 kts | 97° |
| 2026-05-04 14:00 | 58.62331 | -135.67996 | 35273 ft | 548 kts | 97° |
| 2026-05-04 14:01 | 58.61506 | -135.53513 | 35280 ft | 546 kts | 96° |
| 2026-05-04 14:02 | 58.60246 | -135.31911 | 35267 ft | 547 kts | 97° |
| 2026-05-04 14:02 | 58.59382 | -135.17459 | 35266 ft | 546 kts | 98° |
| 2026-05-04 14:03 | 58.58501 | -135.03005 | 35287 ft | 549 kts | 97° |
| 2026-05-04 14:03 | 58.57602 | -134.88519 | 35275 ft | 548 kts | 97° |
| 2026-05-04 14:04 | 58.56229 | -134.66907 | 35244 ft | 550 kts | 97° |
| 2026-05-04 14:04 | 58.55287 | -134.52400 | 35233 ft | 550 kts | 97° |
| 2026-05-04 14:05 | 58.53847 | -134.30728 | 35203 ft | 551 kts | 98° |
| 2026-05-04 14:06 | 58.52862 | -134.16217 | 35226 ft | 551 kts | 98° |
| 2026-05-04 14:06 | 58.51868 | -134.01823 | 35264 ft | 550 kts | 97° |
| 2026-05-04 14:07 | 58.50857 | -133.87416 | 35261 ft | 551 kts | 97° |
| 2026-05-04 14:07 | 58.49823 | -133.72919 | 35264 ft | 551 kts | 98° |
| 2026-05-04 14:08 | 58.48779 | -133.58521 | 35244 ft | 551 kts | 97° |
| 2026-05-04 14:08 | 58.47712 | -133.44045 | 35209 ft | 550 kts | 97° |
| 2026-05-04 14:09 | 58.46088 | -133.22437 | 35191 ft | 552 kts | 98° |
| 2026-05-04 14:10 | 58.44423 | -133.00798 | 35205 ft | 550 kts | 98° |
| 2026-05-04 14:10 | 58.43298 | -132.86440 | 35208 ft | 552 kts | 98° |
| 2026-05-04 14:11 | 58.42155 | -132.72072 | 35203 ft | 550 kts | 97° |
| 2026-05-04 14:11 | 58.40406 | -132.50482 | 35205 ft | 550 kts | 97° |
| 2026-05-04 14:12 | 58.39224 | -132.36145 | 35204 ft | 550 kts | 97° |
| 2026-05-04 14:13 | 58.37426 | -132.14729 | 35210 ft | 550 kts | 98° |
| 2026-05-04 14:13 | 58.36203 | -132.00406 | 35195 ft | 550 kts | 98° |
| 2026-05-04 14:14 | 58.34964 | -131.86081 | 35209 ft | 557 kts | 98° |
| 2026-05-04 14:14 | 58.33672 | -131.71359 | 35262 ft | 570 kts | 98° |
| 2026-05-04 14:14 | 58.33022 | -131.64029 | 35537 ft | 571 kts | 98° |
| 2026-05-04 14:15 | 58.31349 | -131.49382 | 36598 ft | 565 kts | 103° |
| 2026-05-04 14:15 | 58.29322 | -131.35086 | 37199 ft | 565 kts | 104° |
| 2026-05-04 14:16 | 58.26186 | -131.13556 | 37203 ft | 567 kts | 105° |
| 2026-05-04 14:17 | 58.22996 | -130.92119 | 37210 ft | 567 kts | 105° |
| 2026-05-04 14:18 | 58.19754 | -130.70676 | 37254 ft | 567 kts | 105° |
| 2026-05-04 14:19 | 58.15369 | -130.42146 | 37226 ft | 566 kts | 105° |
| 2026-05-04 14:19 | 58.13153 | -130.27918 | 37208 ft | 566 kts | 106° |
| 2026-05-04 14:20 | 58.10933 | -130.13783 | 37214 ft | 565 kts | 106° |
| 2026-05-04 14:20 | 58.08684 | -129.99588 | 37217 ft | 565 kts | 106° |
| 2026-05-04 14:21 | 58.05286 | -129.78354 | 37225 ft | 565 kts | 106° |
| 2026-05-04 14:21 | 58.03005 | -129.64247 | 37226 ft | 564 kts | 106° |
| 2026-05-04 14:22 | 58.00717 | -129.50217 | 37224 ft | 564 kts | 106° |
| 2026-05-04 14:22 | 57.98407 | -129.36157 | 37230 ft | 566 kts | 106° |
| 2026-05-04 14:23 | 57.94904 | -129.15048 | 37223 ft | 566 kts | 107° |
| 2026-05-04 14:24 | 57.92562 | -129.01079 | 37215 ft | 562 kts | 107° |
| 2026-05-04 14:24 | 57.90187 | -128.87025 | 37222 ft | 564 kts | 107° |
| 2026-05-04 14:25 | 57.87812 | -128.73076 | 37218 ft | 563 kts | 107° |
| 2026-05-04 14:25 | 57.84222 | -128.52193 | 37210 ft | 565 kts | 107° |
| 2026-05-04 14:26 | 57.81798 | -128.38229 | 37214 ft | 564 kts | 107° |
| 2026-05-04 14:26 | 57.79378 | -128.24393 | 37209 ft | 564 kts | 108° |
| 2026-05-04 14:27 | 57.76917 | -128.10429 | 37209 ft | 565 kts | 108° |
| 2026-05-04 14:27 | 57.74469 | -127.96641 | 37211 ft | 562 kts | 108° |
| 2026-05-04 14:28 | 57.71991 | -127.82793 | 37213 ft | 563 kts | 108° |
| 2026-05-04 14:28 | 57.69502 | -127.68984 | 37213 ft | 563 kts | 108° |
| 2026-05-04 14:29 | 57.64487 | -127.41464 | 37216 ft | 563 kts | 108° |
| 2026-05-04 14:30 | 57.61953 | -127.27714 | 37205 ft | 563 kts | 109° |
| 2026-05-04 14:31 | 57.58127 | -127.07136 | 37204 ft | 562 kts | 109° |
| 2026-05-04 14:32 | 57.52999 | -126.79898 | 37214 ft | 561 kts | 109° |
| 2026-05-04 14:32 | 57.50405 | -126.66267 | 37222 ft | 562 kts | 109° |
| 2026-05-04 14:33 | 57.47788 | -126.52614 | 37225 ft | 562 kts | 109° |
| 2026-05-04 14:33 | 57.45161 | -126.39003 | 37223 ft | 562 kts | 109° |
| 2026-05-04 14:34 | 57.42538 | -126.25510 | 37220 ft | 561 kts | 110° |
| 2026-05-04 14:34 | 57.39894 | -126.11994 | 37204 ft | 561 kts | 110° |
| 2026-05-04 14:35 | 57.37223 | -125.98440 | 37199 ft | 560 kts | 110° |
| 2026-05-04 14:35 | 57.34558 | -125.85013 | 37198 ft | 560 kts | 110° |
| 2026-05-04 14:36 | 57.31869 | -125.71550 | 37197 ft | 560 kts | 110° |
| 2026-05-04 14:36 | 57.29158 | -125.58074 | 37205 ft | 560 kts | 110° |
| 2026-05-04 14:37 | 57.26454 | -125.44720 | 37204 ft | 559 kts | 110° |
| 2026-05-04 14:37 | 57.23726 | -125.31337 | 37199 ft | 560 kts | 111° |
| 2026-05-04 14:38 | 57.20983 | -125.17975 | 37196 ft | 559 kts | 111° |
| 2026-05-04 14:38 | 57.18227 | -125.04635 | 37195 ft | 559 kts | 111° |
| 2026-05-04 14:39 | 57.15461 | -124.91331 | 37193 ft | 558 kts | 111° |
| 2026-05-04 14:39 | 57.12678 | -124.78038 | 37207 ft | 559 kts | 111° |
| 2026-05-04 14:40 | 57.08499 | -124.58237 | 37215 ft | 559 kts | 111° |
| 2026-05-04 14:40 | 57.05679 | -124.44983 | 37230 ft | 559 kts | 111° |
| 2026-05-04 14:41 | 57.02850 | -124.31770 | 37214 ft | 558 kts | 112° |
| 2026-05-04 14:42 | 56.97166 | -124.05481 | 37222 ft | 557 kts | 112° |
| 2026-05-04 14:42 | 56.94297 | -123.92339 | 37230 ft | 556 kts | 112° |
| 2026-05-04 14:43 | 56.91426 | -123.79269 | 37235 ft | 556 kts | 112° |
| 2026-05-04 14:43 | 56.88546 | -123.66239 | 37230 ft | 556 kts | 112° |
| 2026-05-04 14:44 | 56.85632 | -123.53139 | 37223 ft | 555 kts | 112° |
| 2026-05-04 14:44 | 56.82724 | -123.40147 | 37210 ft | 556 kts | 112° |
| 2026-05-04 14:45 | 56.79812 | -123.27217 | 37188 ft | 555 kts | 113° |
| 2026-05-04 14:45 | 56.76857 | -123.14176 | 37188 ft | 556 kts | 112° |
| 2026-05-04 14:46 | 56.73922 | -123.01300 | 37198 ft | 555 kts | 113° |
| 2026-05-04 14:46 | 56.70950 | -122.88347 | 37190 ft | 554 kts | 113° |
| 2026-05-04 14:47 | 56.67979 | -122.75472 | 37180 ft | 554 kts | 113° |
| 2026-05-04 14:47 | 56.64993 | -122.62608 | 37184 ft | 555 kts | 112° |
| 2026-05-04 14:48 | 56.62011 | -122.49843 | 37186 ft | 554 kts | 113° |
| 2026-05-04 14:48 | 56.58989 | -122.36983 | 37195 ft | 554 kts | 113° |
| 2026-05-04 14:49 | 56.55984 | -122.24268 | 37195 ft | 553 kts | 114° |
| 2026-05-04 14:49 | 56.52946 | -122.11492 | 37203 ft | 555 kts | 114° |
| 2026-05-04 14:50 | 56.49906 | -121.98783 | 37198 ft | 552 kts | 114° |
| 2026-05-04 14:50 | 56.46849 | -121.86076 | 37199 ft | 553 kts | 114° |
| 2026-05-04 14:51 | 56.43780 | -121.73393 | 37195 ft | 552 kts | 114° |
| 2026-05-04 14:51 | 56.40698 | -121.60730 | 37198 ft | 553 kts | 114° |
| 2026-05-04 14:52 | 56.37614 | -121.48138 | 37205 ft | 552 kts | 114° |
| 2026-05-04 14:52 | 56.34506 | -121.35512 | 37202 ft | 551 kts | 113° |
| 2026-05-04 14:53 | 56.31416 | -121.23037 | 37193 ft | 551 kts | 115° |
| 2026-05-04 14:53 | 56.28291 | -121.10487 | 37193 ft | 552 kts | 114° |
| 2026-05-04 14:54 | 56.25144 | -120.97926 | 37195 ft | 552 kts | 115° |
| 2026-05-04 14:54 | 56.21998 | -120.85438 | 37195 ft | 550 kts | 114° |
| 2026-05-04 14:55 | 56.18843 | -120.72984 | 37187 ft | 551 kts | 114° |
| 2026-05-04 14:55 | 56.15673 | -120.60539 | 37194 ft | 550 kts | 115° |
| 2026-05-04 14:56 | 56.12495 | -120.48134 | 37191 ft | 550 kts | 114° |
| 2026-05-04 14:56 | 56.09319 | -120.35803 | 37192 ft | 548 kts | 114° |
| 2026-05-04 14:57 | 56.06128 | -120.23482 | 37186 ft | 549 kts | 115° |
| 2026-05-04 14:57 | 56.02908 | -120.11121 | 37188 ft | 549 kts | 115° |
| 2026-05-04 14:58 | 55.99690 | -119.98862 | 37186 ft | 548 kts | 115° |
| 2026-05-04 14:58 | 55.96428 | -119.86581 | 37186 ft | 548 kts | 115° |
| 2026-05-04 14:59 | 55.93165 | -119.74365 | 37178 ft | 547 kts | 115° |
| 2026-05-04 15:00 | 55.88255 | -119.56110 | 37181 ft | 548 kts | 115° |
| 2026-05-04 15:00 | 55.84964 | -119.43962 | 37169 ft | 548 kts | 115° |
| 2026-05-04 15:01 | 55.80011 | -119.25793 | 37158 ft | 547 kts | 116° |
| 2026-05-04 15:01 | 55.76690 | -119.13691 | 37156 ft | 547 kts | 116° |
| 2026-05-04 15:02 | 55.73363 | -119.01634 | 37170 ft | 545 kts | 116° |
| 2026-05-04 15:02 | 55.70052 | -118.89695 | 37173 ft | 545 kts | 116° |
| 2026-05-04 15:03 | 55.66702 | -118.77677 | 37158 ft | 545 kts | 116° |
| 2026-05-04 15:03 | 55.63340 | -118.65682 | 37170 ft | 544 kts | 116° |
| 2026-05-04 15:04 | 55.59995 | -118.53806 | 37155 ft | 545 kts | 116° |
| 2026-05-04 15:04 | 55.56623 | -118.41900 | 37164 ft | 545 kts | 116° |
| 2026-05-04 15:05 | 55.53243 | -118.30020 | 37154 ft | 543 kts | 117° |
| 2026-05-04 15:05 | 55.49836 | -118.18113 | 37157 ft | 543 kts | 117° |
| 2026-05-04 15:06 | 55.46440 | -118.06300 | 37155 ft | 542 kts | 117° |
| 2026-05-04 15:07 | 55.41334 | -117.88657 | 37162 ft | 543 kts | 117° |
| 2026-05-04 15:07 | 55.37932 | -117.76970 | 37164 ft | 541 kts | 117° |
| 2026-05-04 15:08 | 55.34507 | -117.65265 | 37159 ft | 541 kts | 117° |
| 2026-05-04 15:08 | 55.31060 | -117.53544 | 37147 ft | 540 kts | 117° |
| 2026-05-04 15:09 | 55.27617 | -117.41896 | 37156 ft | 542 kts | 117° |
| 2026-05-04 15:09 | 55.24164 | -117.30271 | 37151 ft | 540 kts | 118° |
| 2026-05-04 15:10 | 55.18970 | -117.12891 | 37143 ft | 539 kts | 118° |
| 2026-05-04 15:11 | 55.13739 | -116.95515 | 37145 ft | 539 kts | 118° |
| 2026-05-04 15:11 | 55.10251 | -116.84003 | 37143 ft | 540 kts | 118° |
| 2026-05-04 15:12 | 55.06764 | -116.72546 | 37144 ft | 538 kts | 118° |
| 2026-05-04 15:12 | 55.03243 | -116.61032 | 37147 ft | 538 kts | 118° |
| 2026-05-04 15:13 | 54.99743 | -116.49644 | 37149 ft | 538 kts | 118° |
| 2026-05-04 15:13 | 54.96205 | -116.38187 | 37156 ft | 537 kts | 118° |
| 2026-05-04 15:14 | 54.92683 | -116.26836 | 37153 ft | 536 kts | 119° |
| 2026-05-04 15:14 | 54.89144 | -116.15487 | 37147 ft | 537 kts | 118° |
| 2026-05-04 15:15 | 54.85597 | -116.04163 | 37157 ft | 536 kts | 119° |
| 2026-05-04 15:15 | 54.82041 | -115.92866 | 37166 ft | 536 kts | 118° |
| 2026-05-04 15:16 | 54.76704 | -115.76006 | 37183 ft | 535 kts | 119° |
| 2026-05-04 15:17 | 54.71334 | -115.59162 | 37184 ft | 535 kts | 118° |
| 2026-05-04 15:17 | 54.65949 | -115.42389 | 37173 ft | 535 kts | 118° |
| 2026-05-04 15:18 | 54.62333 | -115.31187 | 37167 ft | 534 kts | 120° |
| 2026-05-04 15:19 | 54.56930 | -115.14553 | 37160 ft | 533 kts | 120° |
| 2026-05-04 15:19 | 54.51497 | -114.97938 | 37157 ft | 534 kts | 120° |
| 2026-05-04 15:20 | 54.47841 | -114.86823 | 37160 ft | 532 kts | 120° |
| 2026-05-04 15:20 | 54.44215 | -114.75846 | 37156 ft | 533 kts | 120° |
| 2026-05-04 15:21 | 54.40558 | -114.64826 | 37157 ft | 533 kts | 120° |
| 2026-05-04 15:22 | 54.35089 | -114.48441 | 37161 ft | 533 kts | 120° |
| 2026-05-04 15:22 | 54.29576 | -114.32034 | 37157 ft | 532 kts | 120° |
| 2026-05-04 15:23 | 54.25878 | -114.21088 | 37160 ft | 531 kts | 121° |
| 2026-05-04 15:23 | 54.22208 | -114.10275 | 37165 ft | 530 kts | 120° |
| 2026-05-04 15:24 | 54.14789 | -113.88559 | 37161 ft | 530 kts | 120° |
| 2026-05-04 15:25 | 54.11087 | -113.77793 | 37165 ft | 530 kts | 120° |
| 2026-05-04 15:26 | 54.05489 | -113.61607 | 37167 ft | 531 kts | 120° |
| 2026-05-04 15:26 | 53.99896 | -113.45538 | 37173 ft | 529 kts | 120° |
| 2026-05-04 15:27 | 53.94267 | -113.29471 | 37158 ft | 528 kts | 121° |
| 2026-05-04 15:28 | 53.88647 | -113.13534 | 37164 ft | 528 kts | 121° |
| 2026-05-04 15:29 | 53.82994 | -112.97606 | 37162 ft | 528 kts | 121° |
| 2026-05-04 15:30 | 53.69756 | -112.60701 | 37157 ft | 527 kts | 121° |
| 2026-05-04 15:31 | 53.64061 | -112.44993 | 37152 ft | 525 kts | 121° |
| 2026-05-04 15:32 | 53.54512 | -112.18872 | 37148 ft | 526 kts | 122° |
| 2026-05-04 15:34 | 53.44929 | -111.92931 | 37148 ft | 526 kts | 122° |
| 2026-05-04 15:34 | 53.39152 | -111.77422 | 37144 ft | 525 kts | 122° |
| 2026-05-04 15:35 | 53.33395 | -111.62061 | 37145 ft | 523 kts | 122° |
| 2026-05-04 15:36 | 53.27567 | -111.46607 | 37147 ft | 523 kts | 122° |
| 2026-05-04 15:36 | 53.23696 | -111.36394 | 37146 ft | 523 kts | 122° |
| 2026-05-04 15:37 | 53.19825 | -111.26221 | 37134 ft | 523 kts | 123° |
| 2026-05-04 15:37 | 53.15937 | -111.16047 | 37139 ft | 522 kts | 123° |
| 2026-05-04 15:38 | 53.12056 | -111.05931 | 37135 ft | 523 kts | 123° |
| 2026-05-04 15:38 | 53.08137 | -110.95758 | 37139 ft | 522 kts | 122° |
| 2026-05-04 15:39 | 53.04224 | -110.85638 | 37131 ft | 521 kts | 122° |
| 2026-05-04 15:39 | 53.00726 | -110.75251 | 37126 ft | 520 kts | 111° |
| 2026-05-04 15:40 | 52.99429 | -110.69631 | 37137 ft | 520 kts | 109° |
| 2026-05-04 15:40 | 52.96851 | -110.58502 | 37139 ft | 521 kts | 110° |
| 2026-05-04 15:41 | 52.94185 | -110.47438 | 37138 ft | 520 kts | 111° |
| 2026-05-04 15:41 | 52.91452 | -110.36380 | 37133 ft | 519 kts | 111° |
| 2026-05-04 15:42 | 52.88688 | -110.25375 | 37121 ft | 519 kts | 112° |
| 2026-05-04 15:42 | 52.85915 | -110.14450 | 37122 ft | 520 kts | 112° |
| 2026-05-04 15:43 | 52.83114 | -110.03506 | 37125 ft | 519 kts | 112° |
| 2026-05-04 15:43 | 52.80293 | -109.92556 | 37117 ft | 518 kts | 112° |
| 2026-05-04 15:44 | 52.77461 | -109.81629 | 37128 ft | 519 kts | 112° |
| 2026-05-04 15:44 | 52.74635 | -109.70782 | 37124 ft | 519 kts | 112° |
| 2026-05-04 15:45 | 52.71775 | -109.59860 | 37127 ft | 518 kts | 112° |
| 2026-05-04 15:45 | 52.68922 | -109.49025 | 37125 ft | 517 kts | 112° |
| 2026-05-04 15:46 | 52.66066 | -109.38223 | 37127 ft | 519 kts | 112° |
| 2026-05-04 15:46 | 52.63189 | -109.27397 | 37123 ft | 518 kts | 112° |
| 2026-05-04 15:47 | 52.60312 | -109.16622 | 37124 ft | 518 kts | 112° |
| 2026-05-04 15:47 | 52.57426 | -109.05867 | 37119 ft | 516 kts | 112° |
| 2026-05-04 15:48 | 52.54526 | -108.95107 | 37118 ft | 517 kts | 112° |
| 2026-05-04 15:48 | 52.50159 | -108.79002 | 37124 ft | 516 kts | 112° |
| 2026-05-04 15:49 | 52.47245 | -108.68319 | 37126 ft | 516 kts | 112° |
| 2026-05-04 15:49 | 52.44321 | -108.57642 | 37129 ft | 516 kts | 112° |
| 2026-05-04 15:50 | 52.41387 | -108.46984 | 37127 ft | 515 kts | 112° |
| 2026-05-04 15:50 | 52.38444 | -108.36342 | 37125 ft | 516 kts | 112° |
| 2026-05-04 15:51 | 52.35495 | -108.25725 | 37117 ft | 515 kts | 113° |
| 2026-05-04 15:51 | 52.32518 | -108.15055 | 37118 ft | 515 kts | 113° |
| 2026-05-04 15:52 | 52.29562 | -108.04508 | 37121 ft | 515 kts | 113° |
| 2026-05-04 15:52 | 52.26584 | -107.93933 | 37121 ft | 514 kts | 113° |
| 2026-05-04 15:53 | 52.23606 | -107.83406 | 37119 ft | 513 kts | 113° |
| 2026-05-04 15:53 | 52.20625 | -107.72913 | 37115 ft | 514 kts | 113° |
| 2026-05-04 15:54 | 52.17614 | -107.62362 | 37119 ft | 515 kts | 113° |
| 2026-05-04 15:54 | 52.14597 | -107.51841 | 37110 ft | 513 kts | 113° |
| 2026-05-04 15:55 | 52.11606 | -107.41454 | 37110 ft | 513 kts | 113° |
| 2026-05-04 15:55 | 52.08564 | -107.30932 | 37104 ft | 514 kts | 114° |
| 2026-05-04 15:56 | 52.05541 | -107.20527 | 37106 ft | 512 kts | 114° |
| 2026-05-04 15:56 | 52.02510 | -107.10140 | 37106 ft | 512 kts | 114° |
| 2026-05-04 15:57 | 51.99472 | -106.99772 | 37103 ft | 512 kts | 114° |
| 2026-05-04 15:57 | 51.96420 | -106.89405 | 37101 ft | 511 kts | 114° |
| 2026-05-04 15:58 | 51.93369 | -106.79082 | 37100 ft | 511 kts | 114° |
| 2026-05-04 15:58 | 51.90303 | -106.68755 | 37099 ft | 511 kts | 114° |
| 2026-05-04 15:59 | 51.87215 | -106.58398 | 37096 ft | 510 kts | 114° |
| 2026-05-04 15:59 | 51.84130 | -106.48097 | 37100 ft | 511 kts | 114° |
| 2026-05-04 16:00 | 51.81048 | -106.37849 | 37103 ft | 510 kts | 114° |
| 2026-05-04 16:00 | 51.77951 | -106.27595 | 37102 ft | 510 kts | 115° |
| 2026-05-04 16:01 | 51.74850 | -106.17370 | 37103 ft | 509 kts | 114° |
| 2026-05-04 16:01 | 51.71760 | -106.07224 | 37105 ft | 509 kts | 115° |
| 2026-05-04 16:02 | 51.68650 | -105.97058 | 37104 ft | 508 kts | 115° |
| 2026-05-04 16:03 | 51.63963 | -105.81813 | 37107 ft | 508 kts | 115° |
| 2026-05-04 16:03 | 51.60832 | -105.71682 | 37105 ft | 507 kts | 114° |
| 2026-05-04 16:04 | 51.57698 | -105.61584 | 37104 ft | 507 kts | 115° |
| 2026-05-04 16:04 | 51.52969 | -105.46428 | 37101 ft | 507 kts | 115° |
| 2026-05-04 16:05 | 51.49810 | -105.36353 | 37101 ft | 507 kts | 114° |
| 2026-05-04 16:06 | 51.45059 | -105.21281 | 37094 ft | 506 kts | 115° |
| 2026-05-04 16:07 | 51.38705 | -105.01265 | 37097 ft | 506 kts | 115° |
| 2026-05-04 16:08 | 51.32322 | -104.81323 | 37102 ft | 505 kts | 115° |
| 2026-05-04 16:09 | 51.24320 | -104.56546 | 37110 ft | 505 kts | 115° |
| 2026-05-04 16:10 | 51.17877 | -104.36776 | 37115 ft | 504 kts | 115° |
| 2026-05-04 16:11 | 51.11439 | -104.17175 | 37114 ft | 502 kts | 116° |
| 2026-05-04 16:12 | 51.01696 | -103.87806 | 37111 ft | 502 kts | 116° |
| 2026-05-04 16:13 | 50.95157 | -103.68282 | 37112 ft | 501 kts | 116° |
| 2026-05-04 16:14 | 50.88623 | -103.48930 | 37107 ft | 501 kts | 116° |
| 2026-05-04 16:16 | 50.80407 | -103.24801 | 37104 ft | 500 kts | 117° |
| 2026-05-04 16:17 | 50.72134 | -103.00736 | 37106 ft | 500 kts | 116° |
| 2026-05-04 16:18 | 50.65514 | -102.81644 | 37104 ft | 499 kts | 116° |
| 2026-05-04 16:19 | 50.57198 | -102.57860 | 37106 ft | 498 kts | 116° |
| 2026-05-04 16:20 | 50.48859 | -102.34234 | 37102 ft | 497 kts | 117° |
| 2026-05-04 16:22 | 50.40468 | -102.10677 | 37104 ft | 497 kts | 117° |
| 2026-05-04 16:23 | 50.30368 | -101.82607 | 37104 ft | 495 kts | 117° |
| 2026-05-04 16:25 | 50.20223 | -101.54720 | 37101 ft | 493 kts | 117° |
| 2026-05-04 16:26 | 50.08332 | -101.22410 | 37096 ft | 492 kts | 117° |
| 2026-05-04 16:28 | 49.99822 | -100.99531 | 37093 ft | 491 kts | 117° |
| 2026-05-04 16:29 | 49.90684 | -100.65738 | 37093 ft | 486 kts | 109° |
| 2026-05-04 16:31 | 49.84137 | -100.41644 | 37083 ft | 487 kts | 110° |
| 2026-05-04 16:32 | 49.76191 | -100.12881 | 37083 ft | 486 kts | 110° |
| 2026-05-04 16:33 | 49.70851 | -99.93771 | 37081 ft | 486 kts | 110° |
| 2026-05-04 16:34 | 49.66843 | -99.79528 | 37080 ft | 486 kts | 110° |
| 2026-05-04 16:35 | 49.58748 | -99.51025 | 37081 ft | 486 kts | 110° |
| 2026-05-04 16:36 | 49.54692 | -99.36870 | 37079 ft | 484 kts | 110° |
| 2026-05-04 16:37 | 49.50599 | -99.22669 | 37079 ft | 484 kts | 111° |
| 2026-05-04 16:38 | 49.45147 | -99.03886 | 37082 ft | 483 kts | 111° |
| 2026-05-04 16:39 | 49.38274 | -98.80409 | 37088 ft | 484 kts | 111° |
| 2026-05-04 16:40 | 49.32754 | -98.61719 | 37090 ft | 483 kts | 111° |
| 2026-05-04 16:41 | 49.25813 | -98.38421 | 37087 ft | 483 kts | 111° |
| 2026-05-04 16:43 | 49.18840 | -98.15237 | 37080 ft | 482 kts | 111° |
| 2026-05-04 16:43 | 49.14639 | -98.01375 | 37076 ft | 482 kts | 111° |
| 2026-05-04 16:45 | 49.06175 | -97.73680 | 37073 ft | 480 kts | 111° |
| 2026-05-04 16:46 | 48.99104 | -97.50777 | 37073 ft | 480 kts | 111° |
| 2026-05-04 16:47 | 48.93416 | -97.32506 | 37075 ft | 480 kts | 112° |
| 2026-05-04 16:48 | 48.87690 | -97.14248 | 37068 ft | 480 kts | 112° |
| 2026-05-04 16:49 | 48.83120 | -96.95458 | 37068 ft | 476 kts | 105° |
| 2026-05-04 16:50 | 48.78923 | -96.76437 | 37069 ft | 477 kts | 105° |
| 2026-05-04 16:51 | 48.75722 | -96.62268 | 37070 ft | 477 kts | 105° |
| 2026-05-04 16:52 | 48.71389 | -96.43325 | 37070 ft | 476 kts | 105° |
| 2026-05-04 16:53 | 48.68129 | -96.29213 | 37074 ft | 476 kts | 106° |
| 2026-05-04 16:54 | 48.63743 | -96.10377 | 37075 ft | 477 kts | 106° |
| 2026-05-04 16:55 | 48.57108 | -95.82199 | 37076 ft | 477 kts | 106° |
| 2026-05-04 16:56 | 48.51519 | -95.58747 | 37077 ft | 477 kts | 106° |
| 2026-05-04 16:57 | 48.48152 | -95.44736 | 37076 ft | 476 kts | 106° |
| 2026-05-04 16:58 | 48.43639 | -95.26096 | 37080 ft | 477 kts | 107° |
| 2026-05-04 17:00 | 48.36788 | -94.98099 | 37079 ft | 477 kts | 107° |
| 2026-05-04 17:01 | 48.31043 | -94.74889 | 37079 ft | 476 kts | 107° |
| 2026-05-04 17:02 | 48.26411 | -94.56345 | 37078 ft | 476 kts | 107° |
| 2026-05-04 17:03 | 48.22919 | -94.42471 | 37078 ft | 476 kts | 107° |
| 2026-05-04 17:03 | 48.19407 | -94.28597 | 37082 ft | 477 kts | 108° |
| 2026-05-04 17:04 | 48.14702 | -94.10146 | 37082 ft | 477 kts | 108° |
| 2026-05-04 17:05 | 48.09972 | -93.91744 | 37082 ft | 476 kts | 108° |
| 2026-05-04 17:06 | 48.06399 | -93.77943 | 37081 ft | 476 kts | 108° |
| 2026-05-04 17:07 | 48.03204 | -93.65672 | 37082 ft | 476 kts | 108° |
| 2026-05-04 17:07 | 48.00404 | -93.54971 | 37083 ft | 476 kts | 108° |
| 2026-05-04 17:08 | 47.96785 | -93.41210 | 37083 ft | 476 kts | 108° |
| 2026-05-04 17:09 | 47.94375 | -93.32095 | 37080 ft | 475 kts | 108° |
| 2026-05-04 17:09 | 47.91949 | -93.22952 | 37080 ft | 476 kts | 109° |
| 2026-05-04 17:10 | 47.85869 | -93.00199 | 37073 ft | 474 kts | 108° |
| 2026-05-04 17:11 | 47.83420 | -92.91097 | 37073 ft | 475 kts | 108° |
| 2026-05-04 17:12 | 47.79745 | -92.77503 | 37073 ft | 475 kts | 108° |
| 2026-05-04 17:13 | 47.73580 | -92.54871 | 37074 ft | 474 kts | 108° |
| 2026-05-04 17:14 | 47.68623 | -92.36829 | 37078 ft | 474 kts | 108° |
| 2026-05-04 17:15 | 47.64879 | -92.23294 | 37075 ft | 473 kts | 109° |
| 2026-05-04 17:16 | 47.59873 | -92.05315 | 37079 ft | 474 kts | 109° |
| 2026-05-04 17:17 | 47.54847 | -91.87396 | 37080 ft | 473 kts | 109° |
| 2026-05-04 17:18 | 47.49800 | -91.69539 | 37081 ft | 473 kts | 109° |
| 2026-05-04 17:19 | 47.44722 | -91.51705 | 37077 ft | 472 kts | 109° |
| 2026-05-04 17:20 | 47.39623 | -91.33926 | 37072 ft | 472 kts | 110° |
| 2026-05-04 17:20 | 47.35782 | -91.20622 | 37066 ft | 472 kts | 110° |
| 2026-05-04 17:21 | 47.30633 | -91.02898 | 37059 ft | 472 kts | 110° |
| 2026-05-04 17:22 | 47.28050 | -90.94056 | 37054 ft | 471 kts | 110° |
| 2026-05-04 17:23 | 47.22879 | -90.76447 | 37052 ft | 471 kts | 109° |
| 2026-05-04 17:24 | 47.18985 | -90.63267 | 37050 ft | 470 kts | 109° |
| 2026-05-04 17:25 | 47.13770 | -90.45730 | 37052 ft | 470 kts | 110° |
| 2026-05-04 17:26 | 47.08526 | -90.28220 | 37052 ft | 470 kts | 110° |
| 2026-05-04 17:27 | 47.01932 | -90.06374 | 37052 ft | 470 kts | 110° |
| 2026-05-04 17:28 | 46.96364 | -89.89166 | 37049 ft | 470 kts | 112° |
| 2026-05-04 17:29 | 46.87753 | -89.63542 | 37046 ft | 470 kts | 112° |
| 2026-05-04 17:31 | 46.80515 | -89.42219 | 37043 ft | 469 kts | 112° |
| 2026-05-04 17:32 | 46.73247 | -89.20985 | 37051 ft | 471 kts | 112° |
| 2026-05-04 17:33 | 46.67395 | -89.04012 | 37053 ft | 470 kts | 112° |
| 2026-05-04 17:34 | 46.61537 | -88.87131 | 37048 ft | 469 kts | 112° |
| 2026-05-04 17:35 | 46.54162 | -88.66029 | 37055 ft | 470 kts | 112° |
| 2026-05-04 17:36 | 46.51204 | -88.57615 | 37056 ft | 469 kts | 112° |
| 2026-05-04 17:36 | 46.48253 | -88.49245 | 37062 ft | 469 kts | 112° |
| 2026-05-04 17:37 | 46.45278 | -88.40833 | 37061 ft | 470 kts | 112° |
| 2026-05-04 17:37 | 46.42295 | -88.32426 | 37070 ft | 470 kts | 113° |
| 2026-05-04 17:38 | 46.39318 | -88.24062 | 37068 ft | 470 kts | 113° |
| 2026-05-04 17:38 | 46.36327 | -88.15688 | 37065 ft | 469 kts | 113° |
| 2026-05-04 17:39 | 46.31840 | -88.03168 | 37063 ft | 470 kts | 113° |
| 2026-05-04 17:39 | 46.28839 | -87.94830 | 37061 ft | 469 kts | 113° |
| 2026-05-04 17:40 | 46.25829 | -87.86490 | 37057 ft | 469 kts | 113° |
| 2026-05-04 17:40 | 46.22811 | -87.78156 | 37056 ft | 470 kts | 113° |
| 2026-05-04 17:41 | 46.19795 | -87.69855 | 37054 ft | 469 kts | 113° |
| 2026-05-04 17:41 | 46.16783 | -87.61587 | 37055 ft | 470 kts | 112° |
| 2026-05-04 17:42 | 46.13756 | -87.53306 | 37053 ft | 469 kts | 113° |
| 2026-05-04 17:42 | 46.10697 | -87.44962 | 37052 ft | 469 kts | 112° |
| 2026-05-04 17:43 | 46.07669 | -87.36727 | 37050 ft | 470 kts | 112° |
| 2026-05-04 17:43 | 46.04604 | -87.28416 | 37056 ft | 470 kts | 113° |
| 2026-05-04 17:44 | 46.01560 | -87.20191 | 37055 ft | 469 kts | 113° |
| 2026-05-04 17:44 | 45.98498 | -87.11940 | 37055 ft | 470 kts | 113° |
| 2026-05-04 17:45 | 45.95424 | -87.03681 | 37054 ft | 470 kts | 113° |
| 2026-05-04 17:45 | 45.92355 | -86.95464 | 37053 ft | 468 kts | 113° |
| 2026-05-04 17:46 | 45.89291 | -86.87281 | 37046 ft | 469 kts | 113° |
| 2026-05-04 17:46 | 45.86214 | -86.79090 | 37044 ft | 469 kts | 113° |
| 2026-05-04 17:47 | 45.83123 | -86.70887 | 37044 ft | 468 kts | 113° |
| 2026-05-04 17:47 | 45.80036 | -86.62717 | 37043 ft | 468 kts | 113° |
| 2026-05-04 17:48 | 45.76939 | -86.54546 | 37043 ft | 467 kts | 113° |
| 2026-05-04 17:48 | 45.73838 | -86.46392 | 37043 ft | 468 kts | 113° |
| 2026-05-04 17:49 | 45.70739 | -86.38262 | 37042 ft | 467 kts | 112° |
| 2026-05-04 17:49 | 45.67623 | -86.30115 | 37048 ft | 468 kts | 114° |
| 2026-05-04 17:50 | 45.64512 | -86.22005 | 37049 ft | 468 kts | 114° |
| 2026-05-04 17:50 | 45.61391 | -86.13893 | 37048 ft | 467 kts | 114° |
| 2026-05-04 17:51 | 45.58277 | -86.05822 | 37047 ft | 467 kts | 113° |
| 2026-05-04 17:51 | 45.55138 | -85.97708 | 37047 ft | 468 kts | 113° |
| 2026-05-04 17:52 | 45.52010 | -85.89651 | 37047 ft | 467 kts | 113° |
| 2026-05-04 17:52 | 45.48879 | -85.81609 | 37047 ft | 467 kts | 113° |
| 2026-05-04 17:53 | 45.45732 | -85.73547 | 37045 ft | 466 kts | 113° |
| 2026-05-04 17:53 | 45.42596 | -85.65536 | 37045 ft | 466 kts | 113° |
| 2026-05-04 17:54 | 45.39437 | -85.57491 | 37045 ft | 466 kts | 113° |
| 2026-05-04 17:54 | 45.36288 | -85.49496 | 37045 ft | 465 kts | 113° |
| 2026-05-04 17:55 | 45.33128 | -85.41493 | 37044 ft | 466 kts | 113° |
| 2026-05-04 17:55 | 45.29980 | -85.33546 | 37048 ft | 466 kts | 114° |
| 2026-05-04 17:56 | 45.26791 | -85.25518 | 37052 ft | 466 kts | 114° |
| 2026-05-04 17:56 | 45.23638 | -85.17603 | 37051 ft | 464 kts | 114° |
| 2026-05-04 17:57 | 45.20449 | -85.09621 | 37050 ft | 465 kts | 114° |
| 2026-05-04 17:57 | 45.17283 | -85.01717 | 37051 ft | 466 kts | 114° |
| 2026-05-04 17:58 | 45.14079 | -84.93743 | 37050 ft | 465 kts | 113° |
| 2026-05-04 17:58 | 45.10907 | -84.85874 | 37050 ft | 463 kts | 113° |
| 2026-05-04 17:59 | 45.07698 | -84.77930 | 37051 ft | 464 kts | 114° |
| 2026-05-04 18:00 | 45.02896 | -84.66089 | 37052 ft | 464 kts | 113° |
| 2026-05-04 18:00 | 44.99708 | -84.58253 | 37050 ft | 464 kts | 113° |
| 2026-05-04 18:01 | 44.96482 | -84.50348 | 37050 ft | 464 kts | 113° |
| 2026-05-04 18:01 | 44.93282 | -84.42526 | 37050 ft | 464 kts | 113° |
| 2026-05-04 18:02 | 44.88453 | -84.30766 | 37046 ft | 465 kts | 114° |
| 2026-05-04 18:02 | 44.85211 | -84.22900 | 37045 ft | 463 kts | 114° |
| 2026-05-04 18:03 | 44.81991 | -84.15106 | 37046 ft | 464 kts | 114° |
| 2026-05-04 18:03 | 44.78753 | -84.07292 | 37046 ft | 464 kts | 114° |
| 2026-05-04 18:04 | 44.75509 | -83.99484 | 37044 ft | 464 kts | 114° |
| 2026-05-04 18:05 | 44.70633 | -83.87791 | 37044 ft | 464 kts | 114° |
| 2026-05-04 18:05 | 44.67425 | -83.80124 | 37045 ft | 463 kts | 114° |
| 2026-05-04 18:06 | 44.62533 | -83.68470 | 37044 ft | 464 kts | 114° |
| 2026-05-04 18:06 | 44.59271 | -83.60727 | 37043 ft | 463 kts | 113° |
| 2026-05-04 18:07 | 44.56008 | -83.52999 | 37043 ft | 464 kts | 113° |
| 2026-05-04 18:07 | 44.52721 | -83.45239 | 37042 ft | 462 kts | 113° |
| 2026-05-04 18:08 | 44.49438 | -83.37508 | 37041 ft | 464 kts | 114° |
| 2026-05-04 18:08 | 44.46170 | -83.29837 | 37050 ft | 463 kts | 114° |
| 2026-05-04 18:09 | 44.39579 | -83.14419 | 37051 ft | 464 kts | 114° |
| 2026-05-04 18:10 | 44.36279 | -83.06735 | 37050 ft | 462 kts | 114° |
| 2026-05-04 18:10 | 44.32964 | -82.99033 | 37050 ft | 463 kts | 114° |
| 2026-05-04 18:11 | 44.29658 | -82.91372 | 37050 ft | 463 kts | 114° |
| 2026-05-04 18:11 | 44.26342 | -82.83710 | 37048 ft | 462 kts | 114° |
| 2026-05-04 18:12 | 44.23019 | -82.76051 | 37048 ft | 463 kts | 114° |
| 2026-05-04 18:12 | 44.19707 | -82.68439 | 37050 ft | 463 kts | 114° |
| 2026-05-04 18:13 | 44.16381 | -82.60816 | 37049 ft | 461 kts | 114° |
| 2026-05-04 18:14 | 44.11382 | -82.49393 | 37048 ft | 462 kts | 114° |
| 2026-05-04 18:14 | 44.08049 | -82.41805 | 37047 ft | 462 kts | 114° |
| 2026-05-04 18:15 | 44.01347 | -82.26601 | 37058 ft | 463 kts | 114° |
| 2026-05-04 18:16 | 43.97472 | -82.19441 | 37060 ft | 476 kts | 126° |
| 2026-05-04 18:16 | 43.92613 | -82.13128 | 37057 ft | 480 kts | 130° |
| 2026-05-04 18:17 | 43.85194 | -82.03843 | 37044 ft | 479 kts | 130° |
| 2026-05-04 18:18 | 43.77735 | -81.94669 | 37045 ft | 481 kts | 130° |
| 2026-05-04 18:18 | 43.72764 | -81.88606 | 37046 ft | 479 kts | 130° |
| 2026-05-04 18:19 | 43.65296 | -81.79542 | 37045 ft | 479 kts | 130° |
| 2026-05-04 18:19 | 43.60287 | -81.73485 | 37044 ft | 479 kts | 130° |
| 2026-05-04 18:20 | 43.55280 | -81.67447 | 37045 ft | 480 kts | 130° |
| 2026-05-04 18:20 | 43.50271 | -81.61424 | 37045 ft | 477 kts | 130° |
| 2026-05-04 18:21 | 43.45272 | -81.55424 | 37045 ft | 479 kts | 130° |
| 2026-05-04 18:21 | 43.40296 | -81.49470 | 37046 ft | 476 kts | 130° |
| 2026-05-04 18:22 | 43.35300 | -81.43502 | 37046 ft | 477 kts | 130° |
| 2026-05-04 18:22 | 43.30294 | -81.37538 | 37046 ft | 477 kts | 130° |
| 2026-05-04 18:23 | 43.25265 | -81.31559 | 37060 ft | 478 kts | 131° |
| 2026-05-04 18:23 | 43.20271 | -81.25635 | 37060 ft | 479 kts | 131° |
| 2026-05-04 18:24 | 43.15241 | -81.19682 | 37060 ft | 478 kts | 131° |
| 2026-05-04 18:24 | 43.10218 | -81.13752 | 37058 ft | 475 kts | 131° |
| 2026-05-04 18:25 | 43.05413 | -81.07714 | 37056 ft | 466 kts | 124° |
| 2026-05-04 18:25 | 43.01074 | -81.01115 | 37057 ft | 467 kts | 123° |
| 2026-05-04 18:26 | 42.96763 | -80.94557 | 37058 ft | 468 kts | 123° |
| 2026-05-04 18:26 | 42.92404 | -80.87949 | 37058 ft | 466 kts | 123° |
| 2026-05-04 18:27 | 42.88073 | -80.81403 | 37039 ft | 468 kts | 124° |
| 2026-05-04 18:27 | 42.83725 | -80.74850 | 37044 ft | 468 kts | 124° |
| 2026-05-04 18:28 | 42.79363 | -80.68291 | 37042 ft | 469 kts | 124° |
| 2026-05-04 18:28 | 42.74974 | -80.61710 | 37041 ft | 469 kts | 124° |
| 2026-05-04 18:29 | 42.70612 | -80.55182 | 37042 ft | 470 kts | 124° |
| 2026-05-04 18:29 | 42.66220 | -80.48627 | 37040 ft | 469 kts | 124° |
| 2026-05-04 18:30 | 42.59642 | -80.38835 | 37044 ft | 470 kts | 124° |
| 2026-05-04 18:31 | 42.55223 | -80.32275 | 36805 ft | 470 kts | 125° |
| 2026-05-04 18:31 | 42.53041 | -80.29043 | 37046 ft | 471 kts | 125° |
| 2026-05-04 18:31 | 42.50812 | -80.25741 | 37053 ft | 474 kts | 125° |
| 2026-05-04 18:32 | 42.46393 | -80.19211 | 37053 ft | 474 kts | 125° |
| 2026-05-04 18:32 | 42.41923 | -80.12620 | 37055 ft | 476 kts | 126° |
| 2026-05-04 18:33 | 42.37468 | -80.06068 | 37045 ft | 475 kts | 126° |
| 2026-05-04 18:33 | 42.33011 | -79.99528 | 37059 ft | 473 kts | 125° |
| 2026-05-04 18:34 | 42.28563 | -79.93013 | 37047 ft | 473 kts | 126° |
| 2026-05-04 18:34 | 42.24085 | -79.86469 | 37058 ft | 475 kts | 126° |
| 2026-05-04 18:35 | 42.19623 | -79.79965 | 37067 ft | 474 kts | 126° |
| 2026-05-04 18:35 | 42.15125 | -79.73422 | 37055 ft | 476 kts | 126° |
| 2026-05-04 18:36 | 42.10636 | -79.66907 | 37077 ft | 477 kts | 126° |
| 2026-05-04 18:36 | 42.06157 | -79.60422 | 37060 ft | 477 kts | 126° |
| 2026-05-04 18:37 | 42.01650 | -79.53910 | 37057 ft | 475 kts | 126° |
| 2026-05-04 18:37 | 41.97158 | -79.47433 | 37060 ft | 477 kts | 126° |
| 2026-05-04 18:38 | 41.92648 | -79.40945 | 37061 ft | 477 kts | 126° |
| 2026-05-04 18:38 | 41.88119 | -79.34446 | 37054 ft | 478 kts | 127° |
| 2026-05-04 18:39 | 41.83593 | -79.27964 | 37059 ft | 478 kts | 127° |
| 2026-05-04 18:39 | 41.79070 | -79.21502 | 37062 ft | 477 kts | 127° |
| 2026-05-04 18:40 | 41.74519 | -79.15012 | 37061 ft | 478 kts | 127° |
| 2026-05-04 18:40 | 41.69970 | -79.08540 | 37056 ft | 479 kts | 127° |
| 2026-05-04 18:41 | 41.65427 | -79.02093 | 37052 ft | 478 kts | 127° |
| 2026-05-04 18:41 | 41.60873 | -78.95642 | 37050 ft | 479 kts | 127° |
| 2026-05-04 18:42 | 41.56320 | -78.89209 | 37050 ft | 479 kts | 127° |
| 2026-05-04 18:42 | 41.51754 | -78.82771 | 37047 ft | 479 kts | 127° |
| 2026-05-04 18:43 | 41.47183 | -78.76339 | 37045 ft | 480 kts | 128° |
| 2026-05-04 18:43 | 41.42600 | -78.69906 | 37038 ft | 476 kts | 128° |
| 2026-05-04 18:43 | 41.40338 | -78.66734 | 36839 ft | 480 kts | 128° |
| 2026-05-04 18:44 | 41.38028 | -78.63500 | 36586 ft | 479 kts | 128° |
| 2026-05-04 18:44 | 41.36503 | -78.61367 | 36414 ft | 479 kts | 128° |
| 2026-05-04 18:44 | 41.33450 | -78.57101 | 36057 ft | 480 kts | 128° |
| 2026-05-04 18:44 | 41.31145 | -78.53884 | 35838 ft | 479 kts | 128° |
| 2026-05-04 18:45 | 41.28856 | -78.50693 | 35619 ft | 480 kts | 128° |
| 2026-05-04 18:45 | 41.26575 | -78.47517 | 35403 ft | 481 kts | 128° |
| 2026-05-04 18:45 | 41.24262 | -78.44299 | 35182 ft | 481 kts | 128° |
| 2026-05-04 18:45 | 41.21943 | -78.41077 | 34962 ft | 481 kts | 128° |
| 2026-05-04 18:46 | 41.19651 | -78.37897 | 34748 ft | 481 kts | 128° |
| 2026-05-04 18:46 | 41.17347 | -78.34703 | 34523 ft | 482 kts | 129° |
| 2026-05-04 18:46 | 41.15024 | -78.31486 | 34315 ft | 483 kts | 129° |
| 2026-05-04 18:46 | 41.12691 | -78.28258 | 34085 ft | 484 kts | 129° |
| 2026-05-04 18:47 | 41.10371 | -78.25051 | 33845 ft | 484 kts | 129° |
| 2026-05-04 18:47 | 41.08051 | -78.21850 | 33602 ft | 486 kts | 129° |
| 2026-05-04 18:47 | 41.05706 | -78.18616 | 33367 ft | 487 kts | 130° |
| 2026-05-04 18:47 | 41.03363 | -78.15389 | 33132 ft | 487 kts | 130° |
| 2026-05-04 18:48 | 41.01026 | -78.12173 | 32909 ft | 488 kts | 130° |
| 2026-05-04 18:48 | 40.98667 | -78.08931 | 32668 ft | 490 kts | 130° |
| 2026-05-04 18:48 | 40.96296 | -78.05719 | 32426 ft | 491 kts | 133° |
| 2026-05-04 18:48 | 40.93695 | -78.02852 | 32054 ft | 497 kts | 141° |
| 2026-05-04 18:49 | 40.90767 | -78.00446 | 31570 ft | 498 kts | 149° |
| 2026-05-04 18:49 | 40.87592 | -77.98606 | 31069 ft | 495 kts | 158° |
| 2026-05-04 18:49 | 40.84336 | -77.97366 | 30547 ft | 491 kts | 164° |
| 2026-05-04 18:49 | 40.81007 | -77.96307 | 29876 ft | 487 kts | 165° |
| 2026-05-04 18:50 | 40.77741 | -77.95298 | 29189 ft | 483 kts | 164° |
| 2026-05-04 18:50 | 40.74485 | -77.94304 | 28502 ft | 479 kts | 165° |
| 2026-05-04 18:50 | 40.71238 | -77.93323 | 27811 ft | 476 kts | 165° |
| 2026-05-04 18:50 | 40.68050 | -77.92366 | 27135 ft | 472 kts | 165° |
| 2026-05-04 18:51 | 40.64844 | -77.91410 | 26452 ft | 468 kts | 165° |
| 2026-05-04 18:51 | 40.61715 | -77.90482 | 25792 ft | 464 kts | 164° |
| 2026-05-04 18:51 | 40.58601 | -77.89561 | 25165 ft | 459 kts | 164° |
| 2026-05-04 18:51 | 40.55513 | -77.88650 | 24612 ft | 453 kts | 164° |
| 2026-05-04 18:52 | 40.52472 | -77.87756 | 24080 ft | 446 kts | 164° |
| 2026-05-04 18:52 | 40.49466 | -77.86874 | 23544 ft | 441 kts | 164° |
| 2026-05-04 18:52 | 40.46490 | -77.86001 | 22998 ft | 435 kts | 164° |
| 2026-05-04 18:52 | 40.43534 | -77.85136 | 22449 ft | 430 kts | 164° |
| 2026-05-04 18:53 | 40.40641 | -77.84290 | 21910 ft | 426 kts | 164° |
| 2026-05-04 18:53 | 40.37761 | -77.83450 | 21368 ft | 422 kts | 164° |
| 2026-05-04 18:53 | 40.34935 | -77.82625 | 20830 ft | 418 kts | 164° |
| 2026-05-04 18:53 | 40.32102 | -77.81799 | 20290 ft | 414 kts | 164° |
| 2026-05-04 18:54 | 40.29319 | -77.80989 | 19751 ft | 411 kts | 164° |
| 2026-05-04 18:54 | 40.26558 | -77.80187 | 19209 ft | 407 kts | 165° |
| 2026-05-04 18:54 | 40.23812 | -77.79388 | 18678 ft | 404 kts | 165° |
| 2026-05-04 18:54 | 40.21053 | -77.78587 | 18132 ft | 402 kts | 165° |
| 2026-05-04 18:55 | 40.18360 | -77.77807 | 17600 ft | 399 kts | 165° |
| 2026-05-04 18:55 | 40.12948 | -77.76240 | 16513 ft | 395 kts | 164° |
| 2026-05-04 18:55 | 40.10278 | -77.75467 | 15966 ft | 393 kts | 164° |
| 2026-05-04 18:56 | 40.07632 | -77.74702 | 15441 ft | 390 kts | 164° |
| 2026-05-04 18:56 | 40.05012 | -77.73946 | 14916 ft | 388 kts | 164° |
| 2026-05-04 18:56 | 40.02364 | -77.73182 | 14370 ft | 386 kts | 164° |
| 2026-05-04 18:56 | 39.99780 | -77.72438 | 13837 ft | 383 kts | 163° |
| 2026-05-04 18:57 | 39.97169 | -77.71686 | 13296 ft | 381 kts | 163° |
| 2026-05-04 18:57 | 39.94606 | -77.70947 | 12754 ft | 380 kts | 163° |
| 2026-05-04 18:57 | 39.92022 | -77.70204 | 12210 ft | 378 kts | 163° |
| 2026-05-04 18:57 | 39.89453 | -77.69466 | 11755 ft | 374 kts | 164° |
| 2026-05-04 18:58 | 39.86948 | -77.68748 | 11501 ft | 363 kts | 164° |
| 2026-05-04 18:58 | 39.84518 | -77.68053 | 11233 ft | 353 kts | 163° |
| 2026-05-04 18:58 | 39.82154 | -77.67375 | 10979 ft | 341 kts | 163° |
| 2026-05-04 18:58 | 39.79880 | -77.66724 | 10720 ft | 331 kts | 163° |
| 2026-05-04 18:59 | 39.77670 | -77.66090 | 10453 ft | 321 kts | 163° |
| 2026-05-04 18:59 | 39.75520 | -77.65475 | 10208 ft | 309 kts | 163° |
| 2026-05-04 18:59 | 39.73452 | -77.64893 | 10103 ft | 297 kts | 164° |
| 2026-05-04 18:59 | 39.71409 | -77.64418 | 10072 ft | 299 kts | 166° |
| 2026-05-04 19:00 | 39.69381 | -77.63969 | 10030 ft | 301 kts | 166° |
| 2026-05-04 19:00 | 39.67350 | -77.63245 | 9674 ft | 296 kts | 147° |
| 2026-05-04 19:00 | 39.65726 | -77.61734 | 9305 ft | 290 kts | 135° |
| 2026-05-04 19:00 | 39.64121 | -77.60102 | 8925 ft | 293 kts | 139° |
| 2026-05-04 19:01 | 39.62421 | -77.58620 | 8548 ft | 295 kts | 142° |
| 2026-05-04 19:01 | 39.60680 | -77.57217 | 8180 ft | 297 kts | 143° |
| 2026-05-04 19:01 | 39.58949 | -77.55858 | 8069 ft | 287 kts | 143° |
| 2026-05-04 19:01 | 39.57258 | -77.54538 | 8062 ft | 283 kts | 143° |
| 2026-05-04 19:02 | 39.55554 | -77.53205 | 8060 ft | 284 kts | 143° |
| 2026-05-04 19:02 | 39.53870 | -77.51891 | 8059 ft | 284 kts | 143° |
| 2026-05-04 19:02 | 39.52171 | -77.50567 | 8057 ft | 284 kts | 143° |
| 2026-05-04 19:02 | 39.50485 | -77.49252 | 8054 ft | 284 kts | 143° |
| 2026-05-04 19:03 | 39.48799 | -77.47940 | 8053 ft | 284 kts | 143° |
| 2026-05-04 19:03 | 39.47109 | -77.46623 | 8056 ft | 284 kts | 143° |
| 2026-05-04 19:03 | 39.45307 | -77.45539 | 8050 ft | 292 kts | 162° |
| 2026-05-04 19:03 | 39.43246 | -77.45258 | 7998 ft | 297 kts | 175° |
| 2026-05-04 19:04 | 39.41206 | -77.45250 | 7987 ft | 296 kts | 177° |
| 2026-05-04 19:04 | 39.39129 | -77.45268 | 7987 ft | 295 kts | 177° |
| 2026-05-04 19:04 | 39.37094 | -77.45287 | 7989 ft | 295 kts | 177° |
| 2026-05-04 19:04 | 39.35020 | -77.45303 | 7946 ft | 298 kts | 177° |
| 2026-05-04 19:05 | 39.32951 | -77.45315 | 7563 ft | 302 kts | 177° |
| 2026-05-04 19:05 | 39.30832 | -77.45319 | 7181 ft | 303 kts | 177° |
| 2026-05-04 19:05 | 39.28719 | -77.45316 | 6805 ft | 305 kts | 177° |
| 2026-05-04 19:05 | 39.26592 | -77.45303 | 6418 ft | 306 kts | 177° |
| 2026-05-04 19:06 | 39.24490 | -77.45280 | 6021 ft | 299 kts | 177° |
| 2026-05-04 19:06 | 39.22428 | -77.45268 | 5647 ft | 291 kts | 178° |
| 2026-05-04 19:06 | 39.20441 | -77.45281 | 5282 ft | 284 kts | 178° |
| 2026-05-04 19:06 | 39.18461 | -77.45318 | 4928 ft | 284 kts | 179° |
| 2026-05-04 19:07 | 39.16497 | -77.45358 | 4549 ft | 283 kts | 179° |
| 2026-05-04 19:07 | 39.14534 | -77.45408 | 4173 ft | 281 kts | 179° |
| 2026-05-04 19:07 | 39.12604 | -77.45467 | 3849 ft | 277 kts | 180° |
| 2026-05-04 19:07 | 39.10692 | -77.45542 | 3488 ft | 265 kts | 181° |
| 2026-05-04 19:08 | 39.08923 | -77.45660 | 3128 ft | 245 kts | 182° |
| 2026-05-04 19:08 | 39.07276 | -77.45775 | 2770 ft | 233 kts | 181° |
| 2026-05-04 19:08 | 39.05701 | -77.45826 | 2418 ft | 220 kts | 180° |
| 2026-05-04 19:08 | 39.04195 | -77.45840 | 2057 ft | 210 kts | 180° |
| 2026-05-04 19:09 | 39.02768 | -77.45855 | 1709 ft | 202 kts | 181° |
| 2026-05-04 19:09 | 39.01384 | -77.45875 | 1370 ft | 195 kts | 181° |
| 2026-05-04 19:09 | 39.00045 | -77.45892 | 1047 ft | 189 kts | 181° |
| 2026-05-04 19:09 | 38.98806 | -77.45908 | 748 ft | 169 kts | 181° |
| 2026-05-04 19:10 | 38.97673 | -77.45924 | 508 ft | 157 kts | 181° |
| 2026-05-04 19:10 | 38.96603 | -77.45940 | 329 ft | 148 kts | 181° |
| 2026-05-04 19:10 | 38.95715 | -77.45951 | 328 ft | 102 kts | 180° |
| 2026-05-04 19:10 | 38.95219 | -77.45958 | 328 ft | 46 kts | 179° |
| 2026-05-04 19:11 | 38.94969 | -77.45885 | 328 ft | 27 kts | 150° |
| 2026-05-04 19:11 | 38.94817 | -77.45776 | 328 ft | 17 kts | 149° |
| 2026-05-04 19:11 | 38.94715 | -77.45729 | 328 ft | 11 kts | 167° |
| 2026-05-04 19:11 | 38.94657 | -77.45667 | 328 ft | 11 kts | 88° |
| 2026-05-04 19:12 | 38.94667 | -77.45561 | 328 ft | 13 kts | 90° |
| 2026-05-04 19:12 | 38.94667 | -77.45298 | 328 ft | 16 kts | 90° |
| 2026-05-04 19:12 | 38.94665 | -77.45148 | 328 ft | 15 kts | 90° |
| 2026-05-04 19:13 | 38.94663 | -77.45005 | 328 ft | 16 kts | 90° |
| 2026-05-04 19:13 | 38.94662 | -77.44856 | 328 ft | 15 kts | 90° |
| 2026-05-04 19:13 | 38.94661 | -77.44750 | 328 ft | 8 kts | 90° |
| 2026-05-04 19:13 | 38.94661 | -77.44660 | 328 ft | 11 kts | 89° |
| 2026-05-04 19:14 | 38.94660 | -77.44551 | 328 ft | 13 kts | 90° |
| 2026-05-04 19:14 | 38.94659 | -77.44422 | 328 ft | 15 kts | 90° |
| 2026-05-04 19:14 | 38.94657 | -77.44284 | 328 ft | 13 kts | 91° |
| 2026-05-04 19:14 | 38.94656 | -77.44204 | 328 ft | 7 kts | 90° |
| 2026-05-04 19:15 | 38.94656 | -77.44125 | 328 ft | 10 kts | 90° |
| 2026-05-04 19:15 | 38.94648 | -77.44073 | 328 ft | 3 kts | 131° |
| 2026-05-04 19:15 | 38.94627 | -77.44062 | 328 ft | 3 kts | 176° |
| 2026-05-04 19:15 | 38.94603 | -77.44074 | 328 ft | 3 kts | 215° |
| 2026-05-04 19:16 | 38.94591 | -77.44085 | 328 ft | 0 kts | 216° |
| 2026-05-04 19:16 | 38.94589 | -77.44087 | 328 ft | 0 kts | 216° |
| 2026-05-04 19:16 | 38.94588 | -77.44088 | 328 ft | 0 kts | 216° |